<?xml version="1.0" encoding="UTF-8" standalone="no" ?>
<gpx xmlns="http://www.topografix.com/GPX/1/1" xmlns:xsi="http://www.w3.org/2001/XMLSchema-instance" xsi:schemaLocation="http://www.topografix.com/GPX/1/1 http://www.topografix.com/GPX/1/1/gpx.xsd" version="1.1" creator="VisuGPX - https://www.visugpx.com">
  <metadata>
    <name>Col de La Pierre Levée - Col Lougares</name>
    <desc><![CDATA[2015-04 - Col de La Pierre Levée - Col des Fosses - Crêtes de la Montagne du Liron - Col Lougares

[b]album[/b] : [url]https://goo.gl/photos/ZjGHH1pgWYEDnypF7[/url]
[img]https://1.bp.blogspot.com/-bU9cln22KjY/WNQpLkSsAgI/AAAAAAAARTc/sbRXs3imwQQcGmXldP77lQfT1vY-Sum9QCLcB/s1600/2015-04_col-pierre-levee_cretes-Liron_col-lougares_photos_i.JPG[/img]
[b]Idées de randonnées dans la même région[/b]
Parcours : [url]https://www.visugpx.com/membres/24856/montagne/cevennes/[/url]
Photos : [url]https://jcvertygo.blogspot.com/p/cevennes-meridionales.html[/url]]]></desc>
  </metadata>
  <trk>
    <name><![CDATA[Col de La Pierre Levée - Col Lougares_1]]></name>
    <trkseg>
      <trkpt lat="44.01196" lon="3.77899">
        <ele>664.7</ele>
        <time>2015-04-13T11:04:16Z</time>
      </trkpt>
      <trkpt lat="44.01194" lon="3.77905">
        <ele>664.7</ele>
        <time>2015-04-13T11:04:21Z</time>
      </trkpt>
      <trkpt lat="44.01198" lon="3.77912">
        <ele>657</ele>
        <time>2015-04-13T11:04:26Z</time>
      </trkpt>
      <trkpt lat="44.01199" lon="3.77909">
        <ele>657</ele>
        <time>2015-04-13T11:04:36Z</time>
      </trkpt>
      <trkpt lat="44.01202" lon="3.77906">
        <ele>657</ele>
        <time>2015-04-13T11:04:41Z</time>
      </trkpt>
      <trkpt lat="44.01214" lon="3.77907">
        <ele>658.9</ele>
        <time>2015-04-13T11:04:48Z</time>
      </trkpt>
      <trkpt lat="44.01218" lon="3.77908">
        <ele>658.9</ele>
        <time>2015-04-13T11:04:54Z</time>
      </trkpt>
      <trkpt lat="44.01222" lon="3.77911">
        <ele>658.9</ele>
        <time>2015-04-13T11:05:00Z</time>
      </trkpt>
      <trkpt lat="44.01228" lon="3.77922">
        <ele>660.7</ele>
        <time>2015-04-13T11:05:09Z</time>
      </trkpt>
      <trkpt lat="44.01233" lon="3.77925">
        <ele>660.7</ele>
        <time>2015-04-13T11:05:09Z</time>
      </trkpt>
      <trkpt lat="44.01235" lon="3.77927">
        <ele>660.7</ele>
        <time>2015-04-13T11:05:11Z</time>
      </trkpt>
      <trkpt lat="44.01272" lon="3.77941">
        <ele>661.9</ele>
        <time>2015-04-13T11:05:36Z</time>
      </trkpt>
      <trkpt lat="44.01286" lon="3.77944">
        <ele>663.7</ele>
        <time>2015-04-13T11:05:46Z</time>
      </trkpt>
      <trkpt lat="44.01296" lon="3.77942">
        <ele>665.5</ele>
        <time>2015-04-13T11:05:51Z</time>
      </trkpt>
      <trkpt lat="44.01297" lon="3.77946">
        <ele>665.5</ele>
        <time>2015-04-13T11:06:00Z</time>
      </trkpt>
      <trkpt lat="44.01322" lon="3.77957">
        <ele>666.9</ele>
        <time>2015-04-13T11:06:22Z</time>
      </trkpt>
      <trkpt lat="44.01333" lon="3.77967">
        <ele>667.9</ele>
        <time>2015-04-13T11:06:38Z</time>
      </trkpt>
      <trkpt lat="44.01346" lon="3.77985">
        <ele>668.7</ele>
        <time>2015-04-13T11:06:47Z</time>
      </trkpt>
      <trkpt lat="44.01353" lon="3.77993">
        <ele>668.7</ele>
        <time>2015-04-13T11:06:55Z</time>
      </trkpt>
      <trkpt lat="44.01425" lon="3.78026">
        <ele>669.5</ele>
        <time>2015-04-13T11:07:55Z</time>
      </trkpt>
      <trkpt lat="44.01459" lon="3.78075">
        <ele>670.3</ele>
        <time>2015-04-13T11:09:27Z</time>
      </trkpt>
      <trkpt lat="44.01463" lon="3.78089">
        <ele>671.5</ele>
        <time>2015-04-13T11:09:46Z</time>
      </trkpt>
      <trkpt lat="44.01468" lon="3.78096">
        <ele>671.5</ele>
        <time>2015-04-13T11:09:58Z</time>
      </trkpt>
      <trkpt lat="44.01483" lon="3.78112">
        <ele>674.8</ele>
        <time>2015-04-13T11:10:47Z</time>
      </trkpt>
      <trkpt lat="44.01484" lon="3.78113">
        <ele>674.8</ele>
        <time>2015-04-13T11:10:51Z</time>
      </trkpt>
      <trkpt lat="44.01485" lon="3.78115">
        <ele>674.8</ele>
        <time>2015-04-13T11:11:05Z</time>
      </trkpt>
      <trkpt lat="44.01486" lon="3.78126">
        <ele>676.7</ele>
        <time>2015-04-13T11:11:46Z</time>
      </trkpt>
      <trkpt lat="44.01484" lon="3.7816">
        <ele>680</ele>
        <time>2015-04-13T11:12:02Z</time>
      </trkpt>
      <trkpt lat="44.01482" lon="3.78162">
        <ele>680</ele>
        <time>2015-04-13T11:12:20Z</time>
      </trkpt>
      <trkpt lat="44.01483" lon="3.78179">
        <ele>683.2</ele>
        <time>2015-04-13T11:12:20Z</time>
      </trkpt>
      <trkpt lat="44.01483" lon="3.7818">
        <ele>683.2</ele>
        <time>2015-04-13T11:12:21Z</time>
      </trkpt>
      <trkpt lat="44.01488" lon="3.78202">
        <ele>686.2</ele>
        <time>2015-04-13T11:12:47Z</time>
      </trkpt>
      <trkpt lat="44.01505" lon="3.78224">
        <ele>688.9</ele>
        <time>2015-04-13T11:13:46Z</time>
      </trkpt>
      <trkpt lat="44.01509" lon="3.7823">
        <ele>688.9</ele>
        <time>2015-04-13T11:13:46Z</time>
      </trkpt>
      <trkpt lat="44.01513" lon="3.78232">
        <ele>692.2</ele>
        <time>2015-04-13T11:13:58Z</time>
      </trkpt>
      <trkpt lat="44.01556" lon="3.78246">
        <ele>695.9</ele>
        <time>2015-04-13T11:15:22Z</time>
      </trkpt>
      <trkpt lat="44.01591" lon="3.78233">
        <ele>699.6</ele>
        <time>2015-04-13T11:15:46Z</time>
      </trkpt>
      <trkpt lat="44.01594" lon="3.7823">
        <ele>699.6</ele>
        <time>2015-04-13T11:15:53Z</time>
      </trkpt>
      <trkpt lat="44.01598" lon="3.7823">
        <ele>699.6</ele>
        <time>2015-04-13T11:16:04Z</time>
      </trkpt>
      <trkpt lat="44.01635" lon="3.78196">
        <ele>705</ele>
        <time>2015-04-13T11:16:55Z</time>
      </trkpt>
      <trkpt lat="44.01639" lon="3.78195">
        <ele>705</ele>
        <time>2015-04-13T11:17:00Z</time>
      </trkpt>
      <trkpt lat="44.0165" lon="3.78191">
        <ele>710.1</ele>
        <time>2015-04-13T11:17:43Z</time>
      </trkpt>
      <trkpt lat="44.01658" lon="3.78147">
        <ele>715</ele>
        <time>2015-04-13T11:18:25Z</time>
      </trkpt>
      <trkpt lat="44.01669" lon="3.7812">
        <ele>719.7</ele>
        <time>2015-04-13T11:18:33Z</time>
      </trkpt>
      <trkpt lat="44.01673" lon="3.78116">
        <ele>719.7</ele>
        <time>2015-04-13T11:18:46Z</time>
      </trkpt>
      <trkpt lat="44.01695" lon="3.78113">
        <ele>724.2</ele>
        <time>2015-04-13T11:19:00Z</time>
      </trkpt>
      <trkpt lat="44.01696" lon="3.78113">
        <ele>724.2</ele>
        <time>2015-04-13T11:19:07Z</time>
      </trkpt>
      <trkpt lat="44.01716" lon="3.78122">
        <ele>729.4</ele>
        <time>2015-04-13T11:19:51Z</time>
      </trkpt>
      <trkpt lat="44.0172" lon="3.78129">
        <ele>729.4</ele>
        <time>2015-04-13T11:20:12Z</time>
      </trkpt>
      <trkpt lat="44.01734" lon="3.78142">
        <ele>733.8</ele>
        <time>2015-04-13T11:20:46Z</time>
      </trkpt>
      <trkpt lat="44.01763" lon="3.78151">
        <ele>737.9</ele>
        <time>2015-04-13T11:21:05Z</time>
      </trkpt>
      <trkpt lat="44.01833" lon="3.78143">
        <ele>750.2</ele>
        <time>2015-04-13T11:22:46Z</time>
      </trkpt>
      <trkpt lat="44.01836" lon="3.78141">
        <ele>750.2</ele>
        <time>2015-04-13T11:22:46Z</time>
      </trkpt>
      <trkpt lat="44.01839" lon="3.78139">
        <ele>750.2</ele>
        <time>2015-04-13T11:22:59Z</time>
      </trkpt>
      <trkpt lat="44.01874" lon="3.78134">
        <ele>758</ele>
        <time>2015-04-13T11:23:46Z</time>
      </trkpt>
      <trkpt lat="44.01881" lon="3.78132">
        <ele>758</ele>
        <time>2015-04-13T11:23:46Z</time>
      </trkpt>
      <trkpt lat="44.01903" lon="3.78122">
        <ele>762</ele>
        <time>2015-04-13T11:24:17Z</time>
      </trkpt>
      <trkpt lat="44.0193" lon="3.78117">
        <ele>766</ele>
        <time>2015-04-13T11:24:54Z</time>
      </trkpt>
      <trkpt lat="44.0193" lon="3.78116">
        <ele>766</ele>
        <time>2015-04-13T11:25:02Z</time>
      </trkpt>
      <trkpt lat="44.01933" lon="3.78114">
        <ele>766</ele>
        <time>2015-04-13T11:25:02Z</time>
      </trkpt>
      <trkpt lat="44.01959" lon="3.78084">
        <ele>770.8</ele>
        <time>2015-04-13T11:25:46Z</time>
      </trkpt>
      <trkpt lat="44.01959" lon="3.78083">
        <ele>770.8</ele>
        <time>2015-04-13T11:25:51Z</time>
      </trkpt>
      <trkpt lat="44.01967" lon="3.78076">
        <ele>775</ele>
        <time>2015-04-13T11:26:26Z</time>
      </trkpt>
      <trkpt lat="44.01961" lon="3.78089">
        <ele>778.1</ele>
        <time>2015-04-13T11:26:48Z</time>
      </trkpt>
      <trkpt lat="44.01962" lon="3.78092">
        <ele>778.1</ele>
        <time>2015-04-13T11:27:00Z</time>
      </trkpt>
      <trkpt lat="44.01963" lon="3.78093">
        <ele>778.1</ele>
        <time>2015-04-13T11:27:13Z</time>
      </trkpt>
      <trkpt lat="44.01991" lon="3.78098">
        <ele>783.1</ele>
        <time>2015-04-13T11:27:33Z</time>
      </trkpt>
      <trkpt lat="44.02006" lon="3.78098">
        <ele>785.1</ele>
        <time>2015-04-13T11:27:48Z</time>
      </trkpt>
      <trkpt lat="44.02009" lon="3.78099">
        <ele>785.1</ele>
        <time>2015-04-13T11:27:55Z</time>
      </trkpt>
      <trkpt lat="44.02014" lon="3.78107">
        <ele>786.9</ele>
        <time>2015-04-13T11:28:16Z</time>
      </trkpt>
      <trkpt lat="44.02033" lon="3.78097">
        <ele>790.3</ele>
        <time>2015-04-13T11:28:46Z</time>
      </trkpt>
      <trkpt lat="44.02035" lon="3.78097">
        <ele>790.3</ele>
        <time>2015-04-13T11:28:51Z</time>
      </trkpt>
      <trkpt lat="44.02041" lon="3.78095">
        <ele>790.3</ele>
        <time>2015-04-13T11:28:56Z</time>
      </trkpt>
      <trkpt lat="44.02098" lon="3.78108">
        <ele>792.3</ele>
        <time>2015-04-13T11:30:04Z</time>
      </trkpt>
      <trkpt lat="44.02123" lon="3.78118">
        <ele>794.3</ele>
        <time>2015-04-13T11:30:40Z</time>
      </trkpt>
      <trkpt lat="44.02137" lon="3.7813">
        <ele>796.1</ele>
        <time>2015-04-13T11:30:56Z</time>
      </trkpt>
      <trkpt lat="44.02152" lon="3.78168">
        <ele>798.2</ele>
        <time>2015-04-13T11:31:51Z</time>
      </trkpt>
      <trkpt lat="44.02164" lon="3.7823">
        <ele>801.7</ele>
        <time>2015-04-13T11:32:56Z</time>
      </trkpt>
      <trkpt lat="44.02176" lon="3.78241">
        <ele>803</ele>
        <time>2015-04-13T11:33:36Z</time>
      </trkpt>
      <trkpt lat="44.02175" lon="3.78277">
        <ele>805</ele>
        <time>2015-04-13T11:33:53Z</time>
      </trkpt>
      <trkpt lat="44.02173" lon="3.78288">
        <ele>806.7</ele>
        <time>2015-04-13T11:34:06Z</time>
      </trkpt>
      <trkpt lat="44.02169" lon="3.78319">
        <ele>808.1</ele>
        <time>2015-04-13T11:34:45Z</time>
      </trkpt>
      <trkpt lat="44.02162" lon="3.78347">
        <ele>809.3</ele>
        <time>2015-04-13T11:34:51Z</time>
      </trkpt>
      <trkpt lat="44.02177" lon="3.78422">
        <ele>811.8</ele>
        <time>2015-04-13T11:36:34Z</time>
      </trkpt>
      <trkpt lat="44.02169" lon="3.78459">
        <ele>812.9</ele>
        <time>2015-04-13T11:37:07Z</time>
      </trkpt>
      <trkpt lat="44.02169" lon="3.78476">
        <ele>813.9</ele>
        <time>2015-04-13T11:37:24Z</time>
      </trkpt>
      <trkpt lat="44.02176" lon="3.7849">
        <ele>814.6</ele>
        <time>2015-04-13T11:37:47Z</time>
      </trkpt>
      <trkpt lat="44.02198" lon="3.78501">
        <ele>815.3</ele>
        <time>2015-04-13T11:37:51Z</time>
      </trkpt>
      <trkpt lat="44.02234" lon="3.78505">
        <ele>816.1</ele>
        <time>2015-04-13T11:38:59Z</time>
      </trkpt>
      <trkpt lat="44.02271" lon="3.78501">
        <ele>817.8</ele>
        <time>2015-04-13T11:39:53Z</time>
      </trkpt>
      <trkpt lat="44.02276" lon="3.78497">
        <ele>817.8</ele>
        <time>2015-04-13T11:40:04Z</time>
      </trkpt>
      <trkpt lat="44.02303" lon="3.78485">
        <ele>819.7</ele>
        <time>2015-04-13T11:40:41Z</time>
      </trkpt>
      <trkpt lat="44.02309" lon="3.78481">
        <ele>819.7</ele>
        <time>2015-04-13T11:40:51Z</time>
      </trkpt>
      <trkpt lat="44.02318" lon="3.78482">
        <ele>821.4</ele>
        <time>2015-04-13T11:41:06Z</time>
      </trkpt>
      <trkpt lat="44.02323" lon="3.78483">
        <ele>821.4</ele>
        <time>2015-04-13T11:41:06Z</time>
      </trkpt>
      <trkpt lat="44.02359" lon="3.7851">
        <ele>823.2</ele>
        <time>2015-04-13T11:41:55Z</time>
      </trkpt>
      <trkpt lat="44.02393" lon="3.78542">
        <ele>825.4</ele>
        <time>2015-04-13T11:42:53Z</time>
      </trkpt>
      <trkpt lat="44.02393" lon="3.78544">
        <ele>825.4</ele>
        <time>2015-04-13T11:43:04Z</time>
      </trkpt>
      <trkpt lat="44.02395" lon="3.78552">
        <ele>825.4</ele>
        <time>2015-04-13T11:43:30Z</time>
      </trkpt>
      <trkpt lat="44.02395" lon="3.78557">
        <ele>827.8</ele>
        <time>2015-04-13T11:43:48Z</time>
      </trkpt>
      <trkpt lat="44.02395" lon="3.78556">
        <ele>827.8</ele>
        <time>2015-04-13T11:43:51Z</time>
      </trkpt>
      <trkpt lat="44.02393" lon="3.78632">
        <ele>832.2</ele>
        <time>2015-04-13T11:46:49Z</time>
      </trkpt>
      <trkpt lat="44.02393" lon="3.78633">
        <ele>832.2</ele>
        <time>2015-04-13T11:46:51Z</time>
      </trkpt>
      <trkpt lat="44.02405" lon="3.78667">
        <ele>836.3</ele>
        <time>2015-04-13T11:47:25Z</time>
      </trkpt>
      <trkpt lat="44.02408" lon="3.78671">
        <ele>836.3</ele>
        <time>2015-04-13T11:47:31Z</time>
      </trkpt>
      <trkpt lat="44.0241" lon="3.78687">
        <ele>840</ele>
        <time>2015-04-13T11:47:46Z</time>
      </trkpt>
      <trkpt lat="44.024" lon="3.78732">
        <ele>846.2</ele>
        <time>2015-04-13T11:48:21Z</time>
      </trkpt>
      <trkpt lat="44.02422" lon="3.78764">
        <ele>848.7</ele>
        <time>2015-04-13T11:49:09Z</time>
      </trkpt>
      <trkpt lat="44.02422" lon="3.78788">
        <ele>850.9</ele>
        <time>2015-04-13T11:49:31Z</time>
      </trkpt>
      <trkpt lat="44.0245" lon="3.78809">
        <ele>852.9</ele>
        <time>2015-04-13T11:49:51Z</time>
      </trkpt>
      <trkpt lat="44.02481" lon="3.78815">
        <ele>854.8</ele>
        <time>2015-04-13T11:50:21Z</time>
      </trkpt>
      <trkpt lat="44.02502" lon="3.78816">
        <ele>856.7</ele>
        <time>2015-04-13T11:50:48Z</time>
      </trkpt>
      <trkpt lat="44.02513" lon="3.78832">
        <ele>858.9</ele>
        <time>2015-04-13T11:51:47Z</time>
      </trkpt>
      <trkpt lat="44.02512" lon="3.78832">
        <ele>858.9</ele>
        <time>2015-04-13T11:51:47Z</time>
      </trkpt>
      <trkpt lat="44.02518" lon="3.78838">
        <ele>861.1</ele>
        <time>2015-04-13T11:52:18Z</time>
      </trkpt>
      <trkpt lat="44.02519" lon="3.78844">
        <ele>861.1</ele>
        <time>2015-04-13T11:52:24Z</time>
      </trkpt>
      <trkpt lat="44.02521" lon="3.78834">
        <ele>863</ele>
        <time>2015-04-13T11:52:48Z</time>
      </trkpt>
      <trkpt lat="44.02522" lon="3.78832">
        <ele>863</ele>
        <time>2015-04-13T11:52:51Z</time>
      </trkpt>
      <trkpt lat="44.02528" lon="3.78828">
        <ele>864.7</ele>
        <time>2015-04-13T11:53:16Z</time>
      </trkpt>
      <trkpt lat="44.02536" lon="3.78828">
        <ele>864.7</ele>
        <time>2015-04-13T11:53:37Z</time>
      </trkpt>
      <trkpt lat="44.02548" lon="3.78818">
        <ele>866.2</ele>
        <time>2015-04-13T11:53:42Z</time>
      </trkpt>
      <trkpt lat="44.02568" lon="3.78783">
        <ele>869.2</ele>
        <time>2015-04-13T11:54:20Z</time>
      </trkpt>
      <trkpt lat="44.02575" lon="3.7878">
        <ele>869.2</ele>
        <time>2015-04-13T11:54:53Z</time>
      </trkpt>
      <trkpt lat="44.02578" lon="3.78776">
        <ele>870.3</ele>
        <time>2015-04-13T11:55:01Z</time>
      </trkpt>
      <trkpt lat="44.02581" lon="3.78766">
        <ele>870.3</ele>
        <time>2015-04-13T11:55:32Z</time>
      </trkpt>
      <trkpt lat="44.02597" lon="3.78748">
        <ele>871.4</ele>
        <time>2015-04-13T11:55:47Z</time>
      </trkpt>
      <trkpt lat="44.02592" lon="3.78753">
        <ele>871.4</ele>
        <time>2015-04-13T11:57:14Z</time>
      </trkpt>
      <trkpt lat="44.02592" lon="3.78753">
        <ele>871.4</ele>
        <time>2015-04-13T11:57:21Z</time>
      </trkpt>
      <trkpt lat="44.02579" lon="3.78753">
        <ele>872.5</ele>
        <time>2015-04-13T11:57:31Z</time>
      </trkpt>
      <trkpt lat="44.0258" lon="3.78754">
        <ele>872.5</ele>
        <time>2015-04-13T11:57:48Z</time>
      </trkpt>
      <trkpt lat="44.02554" lon="3.78804">
        <ele>873.5</ele>
        <time>2015-04-13T11:58:49Z</time>
      </trkpt>
      <trkpt lat="44.02553" lon="3.78805">
        <ele>873.5</ele>
        <time>2015-04-13T11:58:51Z</time>
      </trkpt>
      <trkpt lat="44.02551" lon="3.78805">
        <ele>873.5</ele>
        <time>2015-04-13T11:58:56Z</time>
      </trkpt>
      <trkpt lat="44.0255" lon="3.78807">
        <ele>873.5</ele>
        <time>2015-04-13T11:59:08Z</time>
      </trkpt>
      <trkpt lat="44.0256" lon="3.78817">
        <ele>874.3</ele>
        <time>2015-04-13T11:59:48Z</time>
      </trkpt>
      <trkpt lat="44.02582" lon="3.78811">
        <ele>874.8</ele>
        <time>2015-04-13T12:00:08Z</time>
      </trkpt>
      <trkpt lat="44.02623" lon="3.78826">
        <ele>874.7</ele>
        <time>2015-04-13T12:01:17Z</time>
      </trkpt>
      <trkpt lat="44.02649" lon="3.78831">
        <ele>874.3</ele>
        <time>2015-04-13T12:01:33Z</time>
      </trkpt>
      <trkpt lat="44.02661" lon="3.78823">
        <ele>873.5</ele>
        <time>2015-04-13T12:01:51Z</time>
      </trkpt>
      <trkpt lat="44.02665" lon="3.78815">
        <ele>873.5</ele>
        <time>2015-04-13T12:04:00Z</time>
      </trkpt>
      <trkpt lat="44.02666" lon="3.78815">
        <ele>873.5</ele>
        <time>2015-04-13T12:04:04Z</time>
      </trkpt>
      <trkpt lat="44.02688" lon="3.788">
        <ele>872</ele>
        <time>2015-04-13T12:04:51Z</time>
      </trkpt>
      <trkpt lat="44.02693" lon="3.78797">
        <ele>872</ele>
        <time>2015-04-13T12:04:56Z</time>
      </trkpt>
      <trkpt lat="44.02706" lon="3.78798">
        <ele>870.4</ele>
        <time>2015-04-13T12:05:15Z</time>
      </trkpt>
      <trkpt lat="44.02718" lon="3.78801">
        <ele>868.9</ele>
        <time>2015-04-13T12:05:17Z</time>
      </trkpt>
      <trkpt lat="44.02752" lon="3.78805">
        <ele>866.8</ele>
        <time>2015-04-13T12:05:57Z</time>
      </trkpt>
      <trkpt lat="44.02756" lon="3.78803">
        <ele>866.8</ele>
        <time>2015-04-13T12:06:23Z</time>
      </trkpt>
      <trkpt lat="44.02766" lon="3.78795">
        <ele>864.8</ele>
        <time>2015-04-13T12:06:48Z</time>
      </trkpt>
      <trkpt lat="44.02755" lon="3.78761">
        <ele>862.7</ele>
        <time>2015-04-13T12:07:51Z</time>
      </trkpt>
      <trkpt lat="44.02756" lon="3.78751">
        <ele>862.7</ele>
        <time>2015-04-13T12:08:06Z</time>
      </trkpt>
      <trkpt lat="44.02756" lon="3.7875">
        <ele>862.7</ele>
        <time>2015-04-13T12:08:18Z</time>
      </trkpt>
      <trkpt lat="44.02771" lon="3.78734">
        <ele>859.2</ele>
        <time>2015-04-13T12:08:34Z</time>
      </trkpt>
      <trkpt lat="44.02793" lon="3.78723">
        <ele>857.7</ele>
        <time>2015-04-13T12:08:56Z</time>
      </trkpt>
      <trkpt lat="44.02831" lon="3.78709">
        <ele>854.9</ele>
        <time>2015-04-13T12:09:21Z</time>
      </trkpt>
      <trkpt lat="44.02857" lon="3.78702">
        <ele>853.8</ele>
        <time>2015-04-13T12:09:50Z</time>
      </trkpt>
      <trkpt lat="44.02858" lon="3.78701">
        <ele>853.8</ele>
        <time>2015-04-13T12:09:53Z</time>
      </trkpt>
      <trkpt lat="44.02897" lon="3.78704">
        <ele>852.4</ele>
        <time>2015-04-13T12:10:33Z</time>
      </trkpt>
      <trkpt lat="44.02902" lon="3.78705">
        <ele>852.4</ele>
        <time>2015-04-13T12:10:36Z</time>
      </trkpt>
      <trkpt lat="44.02909" lon="3.78708">
        <ele>851.2</ele>
        <time>2015-04-13T12:10:41Z</time>
      </trkpt>
      <trkpt lat="44.02913" lon="3.78707">
        <ele>851.2</ele>
        <time>2015-04-13T12:10:46Z</time>
      </trkpt>
      <trkpt lat="44.02919" lon="3.78705">
        <ele>850.3</ele>
        <time>2015-04-13T12:10:51Z</time>
      </trkpt>
      <trkpt lat="44.02926" lon="3.78705">
        <ele>850.3</ele>
        <time>2015-04-13T12:10:56Z</time>
      </trkpt>
      <trkpt lat="44.0293" lon="3.78702">
        <ele>849.4</ele>
        <time>2015-04-13T12:11:01Z</time>
      </trkpt>
      <trkpt lat="44.02938" lon="3.78699">
        <ele>849.4</ele>
        <time>2015-04-13T12:11:06Z</time>
      </trkpt>
      <trkpt lat="44.02942" lon="3.78697">
        <ele>848.6</ele>
        <time>2015-04-13T12:11:11Z</time>
      </trkpt>
      <trkpt lat="44.02946" lon="3.78693">
        <ele>848.6</ele>
        <time>2015-04-13T12:11:16Z</time>
      </trkpt>
      <trkpt lat="44.02946" lon="3.78692">
        <ele>848.6</ele>
        <time>2015-04-13T12:11:21Z</time>
      </trkpt>
      <trkpt lat="44.02949" lon="3.7869">
        <ele>848.6</ele>
        <time>2015-04-13T12:11:26Z</time>
      </trkpt>
      <trkpt lat="44.02951" lon="3.78685">
        <ele>848.2</ele>
        <time>2015-04-13T12:11:45Z</time>
      </trkpt>
      <trkpt lat="44.02961" lon="3.78669">
        <ele>848.1</ele>
        <time>2015-04-13T12:11:46Z</time>
      </trkpt>
      <trkpt lat="44.02964" lon="3.78668">
        <ele>848.1</ele>
        <time>2015-04-13T12:11:57Z</time>
      </trkpt>
      <trkpt lat="44.02982" lon="3.78649">
        <ele>848.2</ele>
        <time>2015-04-13T12:12:12Z</time>
      </trkpt>
      <trkpt lat="44.02994" lon="3.78638">
        <ele>848.5</ele>
        <time>2015-04-13T12:12:28Z</time>
      </trkpt>
      <trkpt lat="44.02995" lon="3.78636">
        <ele>848.5</ele>
        <time>2015-04-13T12:12:31Z</time>
      </trkpt>
      <trkpt lat="44.03003" lon="3.78628">
        <ele>849</ele>
        <time>2015-04-13T12:12:46Z</time>
      </trkpt>
      <trkpt lat="44.03006" lon="3.78625">
        <ele>849</ele>
        <time>2015-04-13T12:13:00Z</time>
      </trkpt>
      <trkpt lat="44.03028" lon="3.78589">
        <ele>849.5</ele>
        <time>2015-04-13T12:13:46Z</time>
      </trkpt>
      <trkpt lat="44.03027" lon="3.78575">
        <ele>849.7</ele>
        <time>2015-04-13T12:13:53Z</time>
      </trkpt>
      <trkpt lat="44.03026" lon="3.78566">
        <ele>849.7</ele>
        <time>2015-04-13T12:14:14Z</time>
      </trkpt>
      <trkpt lat="44.03029" lon="3.78555">
        <ele>850</ele>
        <time>2015-04-13T12:14:20Z</time>
      </trkpt>
      <trkpt lat="44.03031" lon="3.78554">
        <ele>850</ele>
        <time>2015-04-13T12:14:28Z</time>
      </trkpt>
      <trkpt lat="44.03042" lon="3.78527">
        <ele>850.7</ele>
        <time>2015-04-13T12:14:41Z</time>
      </trkpt>
      <trkpt lat="44.03052" lon="3.78516">
        <ele>851.6</ele>
        <time>2015-04-13T12:15:04Z</time>
      </trkpt>
      <trkpt lat="44.03053" lon="3.78515">
        <ele>851.6</ele>
        <time>2015-04-13T12:15:06Z</time>
      </trkpt>
      <trkpt lat="44.03057" lon="3.78511">
        <ele>851.6</ele>
        <time>2015-04-13T12:15:11Z</time>
      </trkpt>
      <trkpt lat="44.03062" lon="3.78509">
        <ele>852.6</ele>
        <time>2015-04-13T12:15:16Z</time>
      </trkpt>
      <trkpt lat="44.03065" lon="3.78505">
        <ele>852.6</ele>
        <time>2015-04-13T12:15:21Z</time>
      </trkpt>
      <trkpt lat="44.03069" lon="3.78503">
        <ele>852.6</ele>
        <time>2015-04-13T12:15:27Z</time>
      </trkpt>
      <trkpt lat="44.03097" lon="3.78497">
        <ele>853.4</ele>
        <time>2015-04-13T12:15:53Z</time>
      </trkpt>
      <trkpt lat="44.03104" lon="3.78497">
        <ele>853.4</ele>
        <time>2015-04-13T12:16:00Z</time>
      </trkpt>
      <trkpt lat="44.03112" lon="3.78496">
        <ele>854.4</ele>
        <time>2015-04-13T12:16:14Z</time>
      </trkpt>
      <trkpt lat="44.03139" lon="3.78503">
        <ele>855.8</ele>
        <time>2015-04-13T12:16:47Z</time>
      </trkpt>
      <trkpt lat="44.03149" lon="3.78493">
        <ele>857.7</ele>
        <time>2015-04-13T12:16:51Z</time>
      </trkpt>
      <trkpt lat="44.03204" lon="3.78457">
        <ele>860.4</ele>
        <time>2015-04-13T12:17:57Z</time>
      </trkpt>
      <trkpt lat="44.03278" lon="3.78452">
        <ele>863.2</ele>
        <time>2015-04-13T12:19:00Z</time>
      </trkpt>
      <trkpt lat="44.0334" lon="3.78457">
        <ele>866</ele>
        <time>2015-04-13T12:19:51Z</time>
      </trkpt>
      <trkpt lat="44.03349" lon="3.78462">
        <ele>868.5</ele>
        <time>2015-04-13T12:20:08Z</time>
      </trkpt>
      <trkpt lat="44.03372" lon="3.7847">
        <ele>870.6</ele>
        <time>2015-04-13T12:20:29Z</time>
      </trkpt>
      <trkpt lat="44.03375" lon="3.7847">
        <ele>870.6</ele>
        <time>2015-04-13T12:20:30Z</time>
      </trkpt>
      <trkpt lat="44.03391" lon="3.78469">
        <ele>872.9</ele>
        <time>2015-04-13T12:20:58Z</time>
      </trkpt>
      <trkpt lat="44.03429" lon="3.78484">
        <ele>875.5</ele>
        <time>2015-04-13T12:21:49Z</time>
      </trkpt>
      <trkpt lat="44.03441" lon="3.78491">
        <ele>878</ele>
        <time>2015-04-13T12:22:00Z</time>
      </trkpt>
      <trkpt lat="44.03443" lon="3.78489">
        <ele>878</ele>
        <time>2015-04-13T12:22:08Z</time>
      </trkpt>
      <trkpt lat="44.03461" lon="3.78485">
        <ele>880.5</ele>
        <time>2015-04-13T12:22:50Z</time>
      </trkpt>
      <trkpt lat="44.03461" lon="3.78489">
        <ele>880.5</ele>
        <time>2015-04-13T12:22:59Z</time>
      </trkpt>
      <trkpt lat="44.03453" lon="3.78467">
        <ele>882.8</ele>
        <time>2015-04-13T12:23:57Z</time>
      </trkpt>
      <trkpt lat="44.03451" lon="3.78465">
        <ele>882.8</ele>
        <time>2015-04-13T12:23:57Z</time>
      </trkpt>
      <trkpt lat="44.03454" lon="3.78476">
        <ele>885.1</ele>
        <time>2015-04-13T12:24:58Z</time>
      </trkpt>
      <trkpt lat="44.03459" lon="3.78484">
        <ele>885.1</ele>
        <time>2015-04-13T12:25:07Z</time>
      </trkpt>
      <trkpt lat="44.03463" lon="3.78472">
        <ele>886.7</ele>
        <time>2015-04-13T12:39:51Z</time>
      </trkpt>
      <trkpt lat="44.0345" lon="3.7845">
        <ele>888.5</ele>
        <time>2015-04-13T12:42:51Z</time>
      </trkpt>
      <trkpt lat="44.03475" lon="3.78414">
        <ele>890.6</ele>
        <time>2015-04-13T12:43:54Z</time>
      </trkpt>
      <trkpt lat="44.03477" lon="3.78414">
        <ele>890.6</ele>
        <time>2015-04-13T12:43:54Z</time>
      </trkpt>
      <trkpt lat="44.03478" lon="3.78413">
        <ele>890.6</ele>
        <time>2015-04-13T12:43:56Z</time>
      </trkpt>
      <trkpt lat="44.03491" lon="3.78376">
        <ele>893.1</ele>
        <time>2015-04-13T12:44:51Z</time>
      </trkpt>
      <trkpt lat="44.0349" lon="3.78372">
        <ele>893.1</ele>
        <time>2015-04-13T12:44:56Z</time>
      </trkpt>
      <trkpt lat="44.03487" lon="3.78368">
        <ele>893.1</ele>
        <time>2015-04-13T12:45:01Z</time>
      </trkpt>
      <trkpt lat="44.03482" lon="3.78353">
        <ele>895.5</ele>
        <time>2015-04-13T12:45:28Z</time>
      </trkpt>
      <trkpt lat="44.03483" lon="3.78351">
        <ele>895.5</ele>
        <time>2015-04-13T12:45:33Z</time>
      </trkpt>
      <trkpt lat="44.03493" lon="3.78346">
        <ele>898.1</ele>
        <time>2015-04-13T12:45:50Z</time>
      </trkpt>
      <trkpt lat="44.03494" lon="3.78347">
        <ele>898.1</ele>
        <time>2015-04-13T12:45:51Z</time>
      </trkpt>
      <trkpt lat="44.03502" lon="3.78325">
        <ele>901.3</ele>
        <time>2015-04-13T12:46:51Z</time>
      </trkpt>
      <trkpt lat="44.03506" lon="3.78324">
        <ele>901.3</ele>
        <time>2015-04-13T12:47:05Z</time>
      </trkpt>
      <trkpt lat="44.03517" lon="3.78318">
        <ele>904.9</ele>
        <time>2015-04-13T12:47:33Z</time>
      </trkpt>
      <trkpt lat="44.03518" lon="3.78323">
        <ele>904.9</ele>
        <time>2015-04-13T12:47:40Z</time>
      </trkpt>
      <trkpt lat="44.0352" lon="3.78327">
        <ele>904.9</ele>
        <time>2015-04-13T12:47:51Z</time>
      </trkpt>
      <trkpt lat="44.03518" lon="3.78315">
        <ele>909</ele>
        <time>2015-04-13T12:48:12Z</time>
      </trkpt>
      <trkpt lat="44.03547" lon="3.78288">
        <ele>913</ele>
        <time>2015-04-13T12:48:44Z</time>
      </trkpt>
      <trkpt lat="44.03548" lon="3.78286">
        <ele>913</ele>
        <time>2015-04-13T12:48:50Z</time>
      </trkpt>
      <trkpt lat="44.03547" lon="3.78285">
        <ele>913</ele>
        <time>2015-04-13T12:48:51Z</time>
      </trkpt>
      <trkpt lat="44.03558" lon="3.78268">
        <ele>917</ele>
        <time>2015-04-13T12:49:24Z</time>
      </trkpt>
      <trkpt lat="44.03565" lon="3.78252">
        <ele>921.1</ele>
        <time>2015-04-13T12:49:51Z</time>
      </trkpt>
      <trkpt lat="44.03565" lon="3.78251">
        <ele>921.1</ele>
        <time>2015-04-13T12:50:07Z</time>
      </trkpt>
      <trkpt lat="44.03563" lon="3.78246">
        <ele>921.1</ele>
        <time>2015-04-13T12:50:15Z</time>
      </trkpt>
      <trkpt lat="44.03561" lon="3.78241">
        <ele>925.1</ele>
        <time>2015-04-13T12:50:33Z</time>
      </trkpt>
      <trkpt lat="44.03569" lon="3.78232">
        <ele>929.2</ele>
        <time>2015-04-13T12:50:51Z</time>
      </trkpt>
      <trkpt lat="44.03571" lon="3.78223">
        <ele>929.2</ele>
        <time>2015-04-13T12:51:03Z</time>
      </trkpt>
      <trkpt lat="44.03594" lon="3.78185">
        <ele>933.5</ele>
        <time>2015-04-13T12:51:51Z</time>
      </trkpt>
      <trkpt lat="44.03593" lon="3.78197">
        <ele>933.5</ele>
        <time>2015-04-13T12:54:00Z</time>
      </trkpt>
      <trkpt lat="44.03595" lon="3.78199">
        <ele>938.7</ele>
        <time>2015-04-13T12:54:05Z</time>
      </trkpt>
      <trkpt lat="44.036" lon="3.78198">
        <ele>938.7</ele>
        <time>2015-04-13T12:54:07Z</time>
      </trkpt>
      <trkpt lat="44.0361" lon="3.78181">
        <ele>943.2</ele>
        <time>2015-04-13T12:54:37Z</time>
      </trkpt>
      <trkpt lat="44.03611" lon="3.7819">
        <ele>943.2</ele>
        <time>2015-04-13T12:54:51Z</time>
      </trkpt>
      <trkpt lat="44.03616" lon="3.78191">
        <ele>947.1</ele>
        <time>2015-04-13T12:55:07Z</time>
      </trkpt>
      <trkpt lat="44.03628" lon="3.78187">
        <ele>950.4</ele>
        <time>2015-04-13T12:55:16Z</time>
      </trkpt>
      <trkpt lat="44.0364" lon="3.78186">
        <ele>953.1</ele>
        <time>2015-04-13T12:55:33Z</time>
      </trkpt>
      <trkpt lat="44.03641" lon="3.78185">
        <ele>953.1</ele>
        <time>2015-04-13T12:55:37Z</time>
      </trkpt>
      <trkpt lat="44.03644" lon="3.78186">
        <ele>953.1</ele>
        <time>2015-04-13T12:55:49Z</time>
      </trkpt>
      <trkpt lat="44.0365" lon="3.78185">
        <ele>955.2</ele>
        <time>2015-04-13T12:55:51Z</time>
      </trkpt>
      <trkpt lat="44.03653" lon="3.78182">
        <ele>955.2</ele>
        <time>2015-04-13T12:56:06Z</time>
      </trkpt>
      <trkpt lat="44.03663" lon="3.78188">
        <ele>956.5</ele>
        <time>2015-04-13T12:56:32Z</time>
      </trkpt>
      <trkpt lat="44.03666" lon="3.78191">
        <ele>956.5</ele>
        <time>2015-04-13T12:56:32Z</time>
      </trkpt>
      <trkpt lat="44.03668" lon="3.78194">
        <ele>956.5</ele>
        <time>2015-04-13T12:56:36Z</time>
      </trkpt>
      <trkpt lat="44.03669" lon="3.78194">
        <ele>956.5</ele>
        <time>2015-04-13T12:56:50Z</time>
      </trkpt>
      <trkpt lat="44.03715" lon="3.78218">
        <ele>958.2</ele>
        <time>2015-04-13T12:57:51Z</time>
      </trkpt>
      <trkpt lat="44.03724" lon="3.7822">
        <ele>958.2</ele>
        <time>2015-04-13T12:58:09Z</time>
      </trkpt>
      <trkpt lat="44.03728" lon="3.78219">
        <ele>958.8</ele>
        <time>2015-04-13T12:58:13Z</time>
      </trkpt>
      <trkpt lat="44.03737" lon="3.78222">
        <ele>959.3</ele>
        <time>2015-04-13T12:58:31Z</time>
      </trkpt>
      <trkpt lat="44.03773" lon="3.7822">
        <ele>959.9</ele>
        <time>2015-04-13T12:59:28Z</time>
      </trkpt>
      <trkpt lat="44.03779" lon="3.78223">
        <ele>959.9</ele>
        <time>2015-04-13T12:59:38Z</time>
      </trkpt>
      <trkpt lat="44.03794" lon="3.78223">
        <ele>960.1</ele>
        <time>2015-04-13T12:59:51Z</time>
      </trkpt>
      <trkpt lat="44.03798" lon="3.78224">
        <ele>960.5</ele>
        <time>2015-04-13T12:59:56Z</time>
      </trkpt>
      <trkpt lat="44.03801" lon="3.78222">
        <ele>960.5</ele>
        <time>2015-04-13T13:00:01Z</time>
      </trkpt>
      <trkpt lat="44.03811" lon="3.78215">
        <ele>960.9</ele>
        <time>2015-04-13T13:00:25Z</time>
      </trkpt>
      <trkpt lat="44.03815" lon="3.78218">
        <ele>960.9</ele>
        <time>2015-04-13T13:00:38Z</time>
      </trkpt>
      <trkpt lat="44.03821" lon="3.78219">
        <ele>961.6</ele>
        <time>2015-04-13T13:00:50Z</time>
      </trkpt>
      <trkpt lat="44.03826" lon="3.78217">
        <ele>961.6</ele>
        <time>2015-04-13T13:01:08Z</time>
      </trkpt>
      <trkpt lat="44.03833" lon="3.78218">
        <ele>962.4</ele>
        <time>2015-04-13T13:01:50Z</time>
      </trkpt>
      <trkpt lat="44.03838" lon="3.78217">
        <ele>962.4</ele>
        <time>2015-04-13T13:02:06Z</time>
      </trkpt>
      <trkpt lat="44.03847" lon="3.78219">
        <ele>963.4</ele>
        <time>2015-04-13T13:02:23Z</time>
      </trkpt>
      <trkpt lat="44.03853" lon="3.78221">
        <ele>964.2</ele>
        <time>2015-04-13T13:02:39Z</time>
      </trkpt>
      <trkpt lat="44.03867" lon="3.78216">
        <ele>964.7</ele>
        <time>2015-04-13T13:02:51Z</time>
      </trkpt>
      <trkpt lat="44.03874" lon="3.78214">
        <ele>964.7</ele>
        <time>2015-04-13T13:03:05Z</time>
      </trkpt>
      <trkpt lat="44.03878" lon="3.78214">
        <ele>965.3</ele>
        <time>2015-04-13T13:03:12Z</time>
      </trkpt>
      <trkpt lat="44.03895" lon="3.7822">
        <ele>965.7</ele>
        <time>2015-04-13T13:03:41Z</time>
      </trkpt>
      <trkpt lat="44.03927" lon="3.78212">
        <ele>967.5</ele>
        <time>2015-04-13T13:05:02Z</time>
      </trkpt>
      <trkpt lat="44.03965" lon="3.78221">
        <ele>968.5</ele>
        <time>2015-04-13T13:05:59Z</time>
      </trkpt>
      <trkpt lat="44.03989" lon="3.78237">
        <ele>969.6</ele>
        <time>2015-04-13T13:06:41Z</time>
      </trkpt>
      <trkpt lat="44.04" lon="3.78249">
        <ele>970.7</ele>
        <time>2015-04-13T13:06:50Z</time>
      </trkpt>
      <trkpt lat="44.04034" lon="3.78277">
        <ele>972</ele>
        <time>2015-04-13T13:08:00Z</time>
      </trkpt>
      <trkpt lat="44.04035" lon="3.78276">
        <ele>972</ele>
        <time>2015-04-13T13:08:06Z</time>
      </trkpt>
      <trkpt lat="44.04051" lon="3.78264">
        <ele>973.5</ele>
        <time>2015-04-13T13:08:45Z</time>
      </trkpt>
      <trkpt lat="44.04054" lon="3.78263">
        <ele>973.5</ele>
        <time>2015-04-13T13:09:27Z</time>
      </trkpt>
      <trkpt lat="44.04057" lon="3.78264">
        <ele>973.5</ele>
        <time>2015-04-13T13:09:50Z</time>
      </trkpt>
      <trkpt lat="44.04061" lon="3.78276">
        <ele>975.3</ele>
        <time>2015-04-13T13:09:51Z</time>
      </trkpt>
      <trkpt lat="44.0406" lon="3.78278">
        <ele>975.3</ele>
        <time>2015-04-13T13:10:29Z</time>
      </trkpt>
      <trkpt lat="44.04085" lon="3.78265">
        <ele>977</ele>
        <time>2015-04-13T13:11:46Z</time>
      </trkpt>
      <trkpt lat="44.0409" lon="3.78264">
        <ele>977</ele>
        <time>2015-04-13T13:11:46Z</time>
      </trkpt>
      <trkpt lat="44.0409" lon="3.78266">
        <ele>977</ele>
        <time>2015-04-13T13:11:53Z</time>
      </trkpt>
      <trkpt lat="44.04099" lon="3.78266">
        <ele>978.4</ele>
        <time>2015-04-13T13:13:50Z</time>
      </trkpt>
      <trkpt lat="44.04103" lon="3.78264">
        <ele>978.4</ele>
        <time>2015-04-13T13:13:52Z</time>
      </trkpt>
      <trkpt lat="44.04143" lon="3.78252">
        <ele>979.1</ele>
        <time>2015-04-13T13:14:53Z</time>
      </trkpt>
      <trkpt lat="44.04144" lon="3.78253">
        <ele>979.1</ele>
        <time>2015-04-13T13:14:58Z</time>
      </trkpt>
      <trkpt lat="44.04222" lon="3.78253">
        <ele>979.6</ele>
        <time>2015-04-13T13:17:22Z</time>
      </trkpt>
      <trkpt lat="44.0423" lon="3.78254">
        <ele>980</ele>
        <time>2015-04-13T13:17:48Z</time>
      </trkpt>
      <trkpt lat="44.04237" lon="3.78253">
        <ele>980</ele>
        <time>2015-04-13T13:17:52Z</time>
      </trkpt>
      <trkpt lat="44.04239" lon="3.78253">
        <ele>980.3</ele>
        <time>2015-04-13T13:17:56Z</time>
      </trkpt>
      <trkpt lat="44.04241" lon="3.78252">
        <ele>980.3</ele>
        <time>2015-04-13T13:18:01Z</time>
      </trkpt>
      <trkpt lat="44.04262" lon="3.7825">
        <ele>980.7</ele>
        <time>2015-04-13T13:18:27Z</time>
      </trkpt>
      <trkpt lat="44.04269" lon="3.78247">
        <ele>980.7</ele>
        <time>2015-04-13T13:18:39Z</time>
      </trkpt>
      <trkpt lat="44.0427" lon="3.78247">
        <ele>980.7</ele>
        <time>2015-04-13T13:18:46Z</time>
      </trkpt>
      <trkpt lat="44.04278" lon="3.78249">
        <ele>981.2</ele>
        <time>2015-04-13T13:18:52Z</time>
      </trkpt>
      <trkpt lat="44.04286" lon="3.78247">
        <ele>981.2</ele>
        <time>2015-04-13T13:19:50Z</time>
      </trkpt>
      <trkpt lat="44.04297" lon="3.78238">
        <ele>982.5</ele>
        <time>2015-04-13T13:20:21Z</time>
      </trkpt>
      <trkpt lat="44.04305" lon="3.78234">
        <ele>982.5</ele>
        <time>2015-04-13T13:20:42Z</time>
      </trkpt>
      <trkpt lat="44.0432" lon="3.78234">
        <ele>983.7</ele>
        <time>2015-04-13T13:20:51Z</time>
      </trkpt>
      <trkpt lat="44.04323" lon="3.78233">
        <ele>983.7</ele>
        <time>2015-04-13T13:21:00Z</time>
      </trkpt>
      <trkpt lat="44.04327" lon="3.78233">
        <ele>983.7</ele>
        <time>2015-04-13T13:21:01Z</time>
      </trkpt>
      <trkpt lat="44.04334" lon="3.78236">
        <ele>984.8</ele>
        <time>2015-04-13T13:21:09Z</time>
      </trkpt>
      <trkpt lat="44.04336" lon="3.78235">
        <ele>984.8</ele>
        <time>2015-04-13T13:21:11Z</time>
      </trkpt>
      <trkpt lat="44.0434" lon="3.78234">
        <ele>984.8</ele>
        <time>2015-04-13T13:21:16Z</time>
      </trkpt>
      <trkpt lat="44.04347" lon="3.78224">
        <ele>985.8</ele>
        <time>2015-04-13T13:21:46Z</time>
      </trkpt>
      <trkpt lat="44.04352" lon="3.78221">
        <ele>985.8</ele>
        <time>2015-04-13T13:23:51Z</time>
      </trkpt>
      <trkpt lat="44.04354" lon="3.78219">
        <ele>985.8</ele>
        <time>2015-04-13T13:23:59Z</time>
      </trkpt>
      <trkpt lat="44.04365" lon="3.7819">
        <ele>987.3</ele>
        <time>2015-04-13T13:24:19Z</time>
      </trkpt>
      <trkpt lat="44.04366" lon="3.7819">
        <ele>987.3</ele>
        <time>2015-04-13T13:24:25Z</time>
      </trkpt>
      <trkpt lat="44.04378" lon="3.78177">
        <ele>988.5</ele>
        <time>2015-04-13T13:24:41Z</time>
      </trkpt>
      <trkpt lat="44.04386" lon="3.78166">
        <ele>989.4</ele>
        <time>2015-04-13T13:24:54Z</time>
      </trkpt>
      <trkpt lat="44.04393" lon="3.78143">
        <ele>989.8</ele>
        <time>2015-04-13T13:25:23Z</time>
      </trkpt>
      <trkpt lat="44.04396" lon="3.78143">
        <ele>989.8</ele>
        <time>2015-04-13T13:25:26Z</time>
      </trkpt>
      <trkpt lat="44.04396" lon="3.78135">
        <ele>989.8</ele>
        <time>2015-04-13T13:25:51Z</time>
      </trkpt>
      <trkpt lat="44.04398" lon="3.7813">
        <ele>989.8</ele>
        <time>2015-04-13T13:26:00Z</time>
      </trkpt>
      <trkpt lat="44.04401" lon="3.78129">
        <ele>989.8</ele>
        <time>2015-04-13T13:26:24Z</time>
      </trkpt>
      <trkpt lat="44.04407" lon="3.78111">
        <ele>989.3</ele>
        <time>2015-04-13T13:26:51Z</time>
      </trkpt>
      <trkpt lat="44.04409" lon="3.78106">
        <ele>988.5</ele>
        <time>2015-04-13T13:27:00Z</time>
      </trkpt>
      <trkpt lat="44.04415" lon="3.78102">
        <ele>988.5</ele>
        <time>2015-04-13T13:27:05Z</time>
      </trkpt>
      <trkpt lat="44.04421" lon="3.78094">
        <ele>987.5</ele>
        <time>2015-04-13T13:27:20Z</time>
      </trkpt>
      <trkpt lat="44.04426" lon="3.78084">
        <ele>987.5</ele>
        <time>2015-04-13T13:27:32Z</time>
      </trkpt>
      <trkpt lat="44.04427" lon="3.78077">
        <ele>986.1</ele>
        <time>2015-04-13T13:27:47Z</time>
      </trkpt>
      <trkpt lat="44.04437" lon="3.78065">
        <ele>984.5</ele>
        <time>2015-04-13T13:28:04Z</time>
      </trkpt>
      <trkpt lat="44.04437" lon="3.7806">
        <ele>984.5</ele>
        <time>2015-04-13T13:28:04Z</time>
      </trkpt>
      <trkpt lat="44.04453" lon="3.7802">
        <ele>981.6</ele>
        <time>2015-04-13T13:29:00Z</time>
      </trkpt>
      <trkpt lat="44.04458" lon="3.77971">
        <ele>977.9</ele>
        <time>2015-04-13T13:29:45Z</time>
      </trkpt>
      <trkpt lat="44.04466" lon="3.77963">
        <ele>977.9</ele>
        <time>2015-04-13T13:29:50Z</time>
      </trkpt>
      <trkpt lat="44.04467" lon="3.77959">
        <ele>974.1</ele>
        <time>2015-04-13T13:29:51Z</time>
      </trkpt>
      <trkpt lat="44.04483" lon="3.77946">
        <ele>969.5</ele>
        <time>2015-04-13T13:30:35Z</time>
      </trkpt>
      <trkpt lat="44.04497" lon="3.77938">
        <ele>964.9</ele>
        <time>2015-04-13T13:31:08Z</time>
      </trkpt>
      <trkpt lat="44.04497" lon="3.77937">
        <ele>964.9</ele>
        <time>2015-04-13T13:31:35Z</time>
      </trkpt>
      <trkpt lat="44.04544" lon="3.77897">
        <ele>955.6</ele>
        <time>2015-04-13T13:32:52Z</time>
      </trkpt>
      <trkpt lat="44.04546" lon="3.77897">
        <ele>955.6</ele>
        <time>2015-04-13T13:33:06Z</time>
      </trkpt>
      <trkpt lat="44.0455" lon="3.77898">
        <ele>955.6</ele>
        <time>2015-04-13T13:33:11Z</time>
      </trkpt>
      <trkpt lat="44.04566" lon="3.77876">
        <ele>951.2</ele>
        <time>2015-04-13T13:33:41Z</time>
      </trkpt>
      <trkpt lat="44.04592" lon="3.77785">
        <ele>937.7</ele>
        <time>2015-04-13T13:35:52Z</time>
      </trkpt>
      <trkpt lat="44.04603" lon="3.77716">
        <ele>931.8</ele>
        <time>2015-04-13T13:36:52Z</time>
      </trkpt>
      <trkpt lat="44.04624" lon="3.77659">
        <ele>926.3</ele>
        <time>2015-04-13T13:38:00Z</time>
      </trkpt>
      <trkpt lat="44.04624" lon="3.77655">
        <ele>926.3</ele>
        <time>2015-04-13T13:38:32Z</time>
      </trkpt>
      <trkpt lat="44.04634" lon="3.77627">
        <ele>921.4</ele>
        <time>2015-04-13T13:38:52Z</time>
      </trkpt>
      <trkpt lat="44.04636" lon="3.77624">
        <ele>921.4</ele>
        <time>2015-04-13T13:38:56Z</time>
      </trkpt>
      <trkpt lat="44.04639" lon="3.77621">
        <ele>921.4</ele>
        <time>2015-04-13T13:39:52Z</time>
      </trkpt>
      <trkpt lat="44.0466" lon="3.77593">
        <ele>917.4</ele>
        <time>2015-04-13T13:40:48Z</time>
      </trkpt>
      <trkpt lat="44.04678" lon="3.77548">
        <ele>910.6</ele>
        <time>2015-04-13T13:41:16Z</time>
      </trkpt>
      <trkpt lat="44.04678" lon="3.77548">
        <ele>910.6</ele>
        <time>2015-04-13T13:41:21Z</time>
      </trkpt>
      <trkpt lat="44.04679" lon="3.7754">
        <ele>910.6</ele>
        <time>2015-04-13T13:41:51Z</time>
      </trkpt>
      <trkpt lat="44.04681" lon="3.77532">
        <ele>907.8</ele>
        <time>2015-04-13T13:41:57Z</time>
      </trkpt>
      <trkpt lat="44.04692" lon="3.7747">
        <ele>903.7</ele>
        <time>2015-04-13T13:43:03Z</time>
      </trkpt>
      <trkpt lat="44.04694" lon="3.77466">
        <ele>902.4</ele>
        <time>2015-04-13T13:43:06Z</time>
      </trkpt>
      <trkpt lat="44.04695" lon="3.77461">
        <ele>902.4</ele>
        <time>2015-04-13T13:43:11Z</time>
      </trkpt>
      <trkpt lat="44.04692" lon="3.77452">
        <ele>901.6</ele>
        <time>2015-04-13T13:43:33Z</time>
      </trkpt>
      <trkpt lat="44.04714" lon="3.774">
        <ele>901.7</ele>
        <time>2015-04-13T13:44:44Z</time>
      </trkpt>
      <trkpt lat="44.04723" lon="3.77389">
        <ele>902.8</ele>
        <time>2015-04-13T13:45:00Z</time>
      </trkpt>
      <trkpt lat="44.04733" lon="3.77381">
        <ele>904.4</ele>
        <time>2015-04-13T13:45:20Z</time>
      </trkpt>
      <trkpt lat="44.04733" lon="3.77381">
        <ele>904.4</ele>
        <time>2015-04-13T13:45:21Z</time>
      </trkpt>
      <trkpt lat="44.04738" lon="3.77375">
        <ele>904.4</ele>
        <time>2015-04-13T13:45:33Z</time>
      </trkpt>
      <trkpt lat="44.04738" lon="3.77375">
        <ele>904.4</ele>
        <time>2015-04-13T13:45:34Z</time>
      </trkpt>
      <trkpt lat="44.04739" lon="3.77374">
        <ele>904.4</ele>
        <time>2015-04-13T13:45:39Z</time>
      </trkpt>
      <trkpt lat="44.04745" lon="3.77368">
        <ele>906.7</ele>
        <time>2015-04-13T13:45:52Z</time>
      </trkpt>
      <trkpt lat="44.04749" lon="3.77357">
        <ele>909.6</ele>
        <time>2015-04-13T13:46:18Z</time>
      </trkpt>
      <trkpt lat="44.04749" lon="3.77355">
        <ele>909.6</ele>
        <time>2015-04-13T13:46:32Z</time>
      </trkpt>
      <trkpt lat="44.04754" lon="3.77335">
        <ele>912.8</ele>
        <time>2015-04-13T13:46:53Z</time>
      </trkpt>
      <trkpt lat="44.04756" lon="3.77332">
        <ele>912.8</ele>
        <time>2015-04-13T13:47:03Z</time>
      </trkpt>
      <trkpt lat="44.04763" lon="3.7732">
        <ele>916.3</ele>
        <time>2015-04-13T13:47:29Z</time>
      </trkpt>
      <trkpt lat="44.04771" lon="3.77305">
        <ele>920.5</ele>
        <time>2015-04-13T13:48:19Z</time>
      </trkpt>
      <trkpt lat="44.04774" lon="3.77302">
        <ele>920.5</ele>
        <time>2015-04-13T13:48:26Z</time>
      </trkpt>
      <trkpt lat="44.04782" lon="3.77296">
        <ele>925.1</ele>
        <time>2015-04-13T13:48:47Z</time>
      </trkpt>
      <trkpt lat="44.04784" lon="3.7729">
        <ele>925.1</ele>
        <time>2015-04-13T13:48:56Z</time>
      </trkpt>
      <trkpt lat="44.04784" lon="3.77283">
        <ele>930.6</ele>
        <time>2015-04-13T13:49:44Z</time>
      </trkpt>
      <trkpt lat="44.04776" lon="3.7724">
        <ele>943.3</ele>
        <time>2015-04-13T13:50:39Z</time>
      </trkpt>
      <trkpt lat="44.04772" lon="3.77236">
        <ele>943.3</ele>
        <time>2015-04-13T13:50:57Z</time>
      </trkpt>
      <trkpt lat="44.04775" lon="3.77239">
        <ele>951.9</ele>
        <time>2015-04-13T13:53:26Z</time>
      </trkpt>
      <trkpt lat="44.0478" lon="3.77241">
        <ele>951.9</ele>
        <time>2015-04-13T13:53:45Z</time>
      </trkpt>
      <trkpt lat="44.0478" lon="3.77249">
        <ele>960</ele>
        <time>2015-04-13T13:53:56Z</time>
      </trkpt>
      <trkpt lat="44.04782" lon="3.77251">
        <ele>960</ele>
        <time>2015-04-13T13:54:01Z</time>
      </trkpt>
      <trkpt lat="44.04782" lon="3.77254">
        <ele>960</ele>
        <time>2015-04-13T13:54:13Z</time>
      </trkpt>
      <trkpt lat="44.04787" lon="3.77253">
        <ele>967.4</ele>
        <time>2015-04-13T13:54:14Z</time>
      </trkpt>
      <trkpt lat="44.04814" lon="3.77228">
        <ele>974</ele>
        <time>2015-04-13T13:54:53Z</time>
      </trkpt>
      <trkpt lat="44.0484" lon="3.77209">
        <ele>984.5</ele>
        <time>2015-04-13T13:55:58Z</time>
      </trkpt>
      <trkpt lat="44.04861" lon="3.77196">
        <ele>988</ele>
        <time>2015-04-13T13:56:44Z</time>
      </trkpt>
      <trkpt lat="44.04864" lon="3.77193">
        <ele>988</ele>
        <time>2015-04-13T13:56:44Z</time>
      </trkpt>
      <trkpt lat="44.04864" lon="3.7719">
        <ele>988</ele>
        <time>2015-04-13T13:56:47Z</time>
      </trkpt>
      <trkpt lat="44.04866" lon="3.77185">
        <ele>990.5</ele>
        <time>2015-04-13T13:56:54Z</time>
      </trkpt>
      <trkpt lat="44.04908" lon="3.7715">
        <ele>990.8</ele>
        <time>2015-04-13T13:57:53Z</time>
      </trkpt>
      <trkpt lat="44.04945" lon="3.77108">
        <ele>988.6</ele>
        <time>2015-04-13T13:58:58Z</time>
      </trkpt>
      <trkpt lat="44.04957" lon="3.77098">
        <ele>985.8</ele>
        <time>2015-04-13T13:59:53Z</time>
      </trkpt>
      <trkpt lat="44.0498" lon="3.77091">
        <ele>982.5</ele>
        <time>2015-04-13T14:01:21Z</time>
      </trkpt>
      <trkpt lat="44.04974" lon="3.7709">
        <ele>982.5</ele>
        <time>2015-04-13T14:01:51Z</time>
      </trkpt>
      <trkpt lat="44.0497" lon="3.77086">
        <ele>979</ele>
        <time>2015-04-13T14:01:56Z</time>
      </trkpt>
      <trkpt lat="44.04973" lon="3.77086">
        <ele>979</ele>
        <time>2015-04-13T14:02:15Z</time>
      </trkpt>
      <trkpt lat="44.04994" lon="3.77083">
        <ele>975.7</ele>
        <time>2015-04-13T14:02:28Z</time>
      </trkpt>
      <trkpt lat="44.0501" lon="3.77074">
        <ele>972.5</ele>
        <time>2015-04-13T14:02:52Z</time>
      </trkpt>
      <trkpt lat="44.05015" lon="3.77068">
        <ele>972.5</ele>
        <time>2015-04-13T14:02:56Z</time>
      </trkpt>
      <trkpt lat="44.05037" lon="3.77083">
        <ele>967.5</ele>
        <time>2015-04-13T14:03:44Z</time>
      </trkpt>
      <trkpt lat="44.05042" lon="3.77083">
        <ele>967.5</ele>
        <time>2015-04-13T14:03:58Z</time>
      </trkpt>
      <trkpt lat="44.05044" lon="3.77083">
        <ele>967.5</ele>
        <time>2015-04-13T14:04:05Z</time>
      </trkpt>
      <trkpt lat="44.05051" lon="3.77077">
        <ele>966</ele>
        <time>2015-04-13T14:04:35Z</time>
      </trkpt>
      <trkpt lat="44.05052" lon="3.77077">
        <ele>966</ele>
        <time>2015-04-13T14:04:41Z</time>
      </trkpt>
      <trkpt lat="44.05052" lon="3.77077">
        <ele>966</ele>
        <time>2015-04-13T14:04:41Z</time>
      </trkpt>
      <trkpt lat="44.05059" lon="3.77066">
        <ele>965.1</ele>
        <time>2015-04-13T14:05:30Z</time>
      </trkpt>
      <trkpt lat="44.05059" lon="3.77065">
        <ele>965.1</ele>
        <time>2015-04-13T14:05:31Z</time>
      </trkpt>
      <trkpt lat="44.05067" lon="3.77051">
        <ele>964.2</ele>
        <time>2015-04-13T14:05:49Z</time>
      </trkpt>
      <trkpt lat="44.0507" lon="3.7705">
        <ele>964.2</ele>
        <time>2015-04-13T14:05:52Z</time>
      </trkpt>
      <trkpt lat="44.05073" lon="3.77048">
        <ele>964.2</ele>
        <time>2015-04-13T14:05:56Z</time>
      </trkpt>
      <trkpt lat="44.05079" lon="3.77043">
        <ele>963.5</ele>
        <time>2015-04-13T14:06:12Z</time>
      </trkpt>
      <trkpt lat="44.05085" lon="3.77032">
        <ele>962.8</ele>
        <time>2015-04-13T14:06:43Z</time>
      </trkpt>
      <trkpt lat="44.05094" lon="3.77029">
        <ele>962.4</ele>
        <time>2015-04-13T14:06:52Z</time>
      </trkpt>
      <trkpt lat="44.05095" lon="3.77029">
        <ele>962.4</ele>
        <time>2015-04-13T14:06:52Z</time>
      </trkpt>
      <trkpt lat="44.05097" lon="3.77026">
        <ele>962.4</ele>
        <time>2015-04-13T14:06:58Z</time>
      </trkpt>
      <trkpt lat="44.05103" lon="3.77023">
        <ele>962.1</ele>
        <time>2015-04-13T14:07:16Z</time>
      </trkpt>
      <trkpt lat="44.05114" lon="3.77025">
        <ele>962</ele>
        <time>2015-04-13T14:07:21Z</time>
      </trkpt>
      <trkpt lat="44.05115" lon="3.77027">
        <ele>962</ele>
        <time>2015-04-13T14:07:23Z</time>
      </trkpt>
      <trkpt lat="44.05126" lon="3.77021">
        <ele>962</ele>
        <time>2015-04-13T14:07:46Z</time>
      </trkpt>
      <trkpt lat="44.05127" lon="3.7702">
        <ele>962</ele>
        <time>2015-04-13T14:07:46Z</time>
      </trkpt>
      <trkpt lat="44.05131" lon="3.77013">
        <ele>962</ele>
        <time>2015-04-13T14:07:57Z</time>
      </trkpt>
      <trkpt lat="44.05132" lon="3.77014">
        <ele>962</ele>
        <time>2015-04-13T14:08:10Z</time>
      </trkpt>
      <trkpt lat="44.05142" lon="3.77009">
        <ele>962.8</ele>
        <time>2015-04-13T14:08:30Z</time>
      </trkpt>
      <trkpt lat="44.0516" lon="3.77006">
        <ele>964.2</ele>
        <time>2015-04-13T14:08:56Z</time>
      </trkpt>
      <trkpt lat="44.05168" lon="3.77008">
        <ele>964.2</ele>
        <time>2015-04-13T14:09:12Z</time>
      </trkpt>
      <trkpt lat="44.05175" lon="3.77004">
        <ele>965.8</ele>
        <time>2015-04-13T14:09:29Z</time>
      </trkpt>
      <trkpt lat="44.05185" lon="3.77005">
        <ele>968.1</ele>
        <time>2015-04-13T14:09:46Z</time>
      </trkpt>
      <trkpt lat="44.05186" lon="3.77006">
        <ele>968.1</ele>
        <time>2015-04-13T14:10:00Z</time>
      </trkpt>
      <trkpt lat="44.05189" lon="3.77009">
        <ele>968.1</ele>
        <time>2015-04-13T14:10:04Z</time>
      </trkpt>
      <trkpt lat="44.05224" lon="3.77">
        <ele>973.7</ele>
        <time>2015-04-13T14:10:54Z</time>
      </trkpt>
      <trkpt lat="44.05224" lon="3.77">
        <ele>973.7</ele>
        <time>2015-04-13T14:11:46Z</time>
      </trkpt>
      <trkpt lat="44.05228" lon="3.77001">
        <ele>973.7</ele>
        <time>2015-04-13T14:13:00Z</time>
      </trkpt>
      <trkpt lat="44.05246" lon="3.77009">
        <ele>976.7</ele>
        <time>2015-04-13T14:14:33Z</time>
      </trkpt>
      <trkpt lat="44.05247" lon="3.77016">
        <ele>976.7</ele>
        <time>2015-04-13T14:14:52Z</time>
      </trkpt>
      <trkpt lat="44.05247" lon="3.77021">
        <ele>979.5</ele>
        <time>2015-04-13T14:14:56Z</time>
      </trkpt>
      <trkpt lat="44.0525" lon="3.77022">
        <ele>979.5</ele>
        <time>2015-04-13T14:15:01Z</time>
      </trkpt>
      <trkpt lat="44.05253" lon="3.77021">
        <ele>979.5</ele>
        <time>2015-04-13T14:15:08Z</time>
      </trkpt>
      <trkpt lat="44.05274" lon="3.77016">
        <ele>981.8</ele>
        <time>2015-04-13T14:15:53Z</time>
      </trkpt>
      <trkpt lat="44.05275" lon="3.77016">
        <ele>981.8</ele>
        <time>2015-04-13T14:16:00Z</time>
      </trkpt>
      <trkpt lat="44.05303" lon="3.77029">
        <ele>985.3</ele>
        <time>2015-04-13T14:17:01Z</time>
      </trkpt>
      <trkpt lat="44.05311" lon="3.77032">
        <ele>985.3</ele>
        <time>2015-04-13T14:17:10Z</time>
      </trkpt>
      <trkpt lat="44.05321" lon="3.77028">
        <ele>986.4</ele>
        <time>2015-04-13T14:17:23Z</time>
      </trkpt>
      <trkpt lat="44.05329" lon="3.7703">
        <ele>986.4</ele>
        <time>2015-04-13T14:17:33Z</time>
      </trkpt>
      <trkpt lat="44.0533" lon="3.7703">
        <ele>986.4</ele>
        <time>2015-04-13T14:17:33Z</time>
      </trkpt>
      <trkpt lat="44.05338" lon="3.77022">
        <ele>986.9</ele>
        <time>2015-04-13T14:17:56Z</time>
      </trkpt>
      <trkpt lat="44.05342" lon="3.77024">
        <ele>986.9</ele>
        <time>2015-04-13T14:18:10Z</time>
      </trkpt>
      <trkpt lat="44.05347" lon="3.77023">
        <ele>987</ele>
        <time>2015-04-13T14:18:17Z</time>
      </trkpt>
      <trkpt lat="44.05355" lon="3.77017">
        <ele>987</ele>
        <time>2015-04-13T14:18:31Z</time>
      </trkpt>
      <trkpt lat="44.05375" lon="3.76997">
        <ele>986.8</ele>
        <time>2015-04-13T14:19:00Z</time>
      </trkpt>
      <trkpt lat="44.05384" lon="3.76999">
        <ele>986.5</ele>
        <time>2015-04-13T14:19:06Z</time>
      </trkpt>
      <trkpt lat="44.05413" lon="3.76994">
        <ele>985.4</ele>
        <time>2015-04-13T14:19:58Z</time>
      </trkpt>
      <trkpt lat="44.05414" lon="3.76995">
        <ele>985.4</ele>
        <time>2015-04-13T14:20:20Z</time>
      </trkpt>
      <trkpt lat="44.05443" lon="3.76979">
        <ele>983.9</ele>
        <time>2015-04-13T14:20:56Z</time>
      </trkpt>
      <trkpt lat="44.05448" lon="3.76973">
        <ele>983.9</ele>
        <time>2015-04-13T14:21:16Z</time>
      </trkpt>
      <trkpt lat="44.05459" lon="3.76971">
        <ele>982</ele>
        <time>2015-04-13T14:21:54Z</time>
      </trkpt>
      <trkpt lat="44.0546" lon="3.7697">
        <ele>982</ele>
        <time>2015-04-13T14:22:00Z</time>
      </trkpt>
      <trkpt lat="44.05506" lon="3.76933">
        <ele>979.2</ele>
        <time>2015-04-13T14:22:58Z</time>
      </trkpt>
      <trkpt lat="44.0551" lon="3.76929">
        <ele>976.5</ele>
        <time>2015-04-13T14:23:11Z</time>
      </trkpt>
      <trkpt lat="44.05526" lon="3.76922">
        <ele>973.6</ele>
        <time>2015-04-13T14:23:30Z</time>
      </trkpt>
      <trkpt lat="44.05531" lon="3.76917">
        <ele>973.6</ele>
        <time>2015-04-13T14:23:53Z</time>
      </trkpt>
      <trkpt lat="44.05542" lon="3.76913">
        <ele>970.3</ele>
        <time>2015-04-13T14:23:56Z</time>
      </trkpt>
      <trkpt lat="44.05568" lon="3.76919">
        <ele>966.7</ele>
        <time>2015-04-13T14:25:00Z</time>
      </trkpt>
      <trkpt lat="44.05583" lon="3.76911">
        <ele>962.7</ele>
        <time>2015-04-13T14:25:58Z</time>
      </trkpt>
      <trkpt lat="44.05585" lon="3.76923">
        <ele>958.9</ele>
        <time>2015-04-13T14:26:36Z</time>
      </trkpt>
      <trkpt lat="44.05584" lon="3.76926">
        <ele>958.9</ele>
        <time>2015-04-13T14:26:48Z</time>
      </trkpt>
      <trkpt lat="44.05587" lon="3.76917">
        <ele>954.2</ele>
        <time>2015-04-13T14:34:21Z</time>
      </trkpt>
      <trkpt lat="44.05579" lon="3.76894">
        <ele>949.7</ele>
        <time>2015-04-13T14:34:48Z</time>
      </trkpt>
      <trkpt lat="44.05577" lon="3.76889">
        <ele>949.7</ele>
        <time>2015-04-13T14:34:53Z</time>
      </trkpt>
      <trkpt lat="44.05577" lon="3.76882">
        <ele>945.5</ele>
        <time>2015-04-13T14:34:58Z</time>
      </trkpt>
      <trkpt lat="44.05568" lon="3.76845">
        <ele>941.8</ele>
        <time>2015-04-13T14:35:53Z</time>
      </trkpt>
      <trkpt lat="44.0553" lon="3.768">
        <ele>938.2</ele>
        <time>2015-04-13T14:35:56Z</time>
      </trkpt>
      <trkpt lat="44.05516" lon="3.76795">
        <ele>934.8</ele>
        <time>2015-04-13T14:36:10Z</time>
      </trkpt>
      <trkpt lat="44.05511" lon="3.76787">
        <ele>931.7</ele>
        <time>2015-04-13T14:36:19Z</time>
      </trkpt>
      <trkpt lat="44.05465" lon="3.7682">
        <ele>929</ele>
        <time>2015-04-13T14:36:59Z</time>
      </trkpt>
      <trkpt lat="44.05463" lon="3.76821">
        <ele>929</ele>
        <time>2015-04-13T14:37:03Z</time>
      </trkpt>
      <trkpt lat="44.05452" lon="3.76826">
        <ele>926.6</ele>
        <time>2015-04-13T14:37:16Z</time>
      </trkpt>
      <trkpt lat="44.05392" lon="3.76829">
        <ele>924.2</ele>
        <time>2015-04-13T14:38:00Z</time>
      </trkpt>
      <trkpt lat="44.05353" lon="3.76826">
        <ele>921.2</ele>
        <time>2015-04-13T14:38:32Z</time>
      </trkpt>
      <trkpt lat="44.0533" lon="3.7681">
        <ele>918.3</ele>
        <time>2015-04-13T14:38:56Z</time>
      </trkpt>
      <trkpt lat="44.05327" lon="3.76803">
        <ele>918.3</ele>
        <time>2015-04-13T14:39:11Z</time>
      </trkpt>
      <trkpt lat="44.0531" lon="3.76778">
        <ele>915.5</ele>
        <time>2015-04-13T14:39:21Z</time>
      </trkpt>
      <trkpt lat="44.05288" lon="3.76737">
        <ele>912.8</ele>
        <time>2015-04-13T14:39:59Z</time>
      </trkpt>
      <trkpt lat="44.05229" lon="3.76698">
        <ele>910.2</ele>
        <time>2015-04-13T14:40:53Z</time>
      </trkpt>
      <trkpt lat="44.05222" lon="3.76678">
        <ele>907.9</ele>
        <time>2015-04-13T14:40:59Z</time>
      </trkpt>
      <trkpt lat="44.05151" lon="3.76627">
        <ele>904.2</ele>
        <time>2015-04-13T14:41:56Z</time>
      </trkpt>
      <trkpt lat="44.05136" lon="3.76628">
        <ele>900.7</ele>
        <time>2015-04-13T14:42:07Z</time>
      </trkpt>
      <trkpt lat="44.0508" lon="3.76649">
        <ele>896.7</ele>
        <time>2015-04-13T14:43:00Z</time>
      </trkpt>
      <trkpt lat="44.04932" lon="3.76627">
        <ele>886.8</ele>
        <time>2015-04-13T14:44:57Z</time>
      </trkpt>
      <trkpt lat="44.04921" lon="3.7663">
        <ele>882.1</ele>
        <time>2015-04-13T14:45:07Z</time>
      </trkpt>
      <trkpt lat="44.04918" lon="3.76634">
        <ele>882.1</ele>
        <time>2015-04-13T14:45:54Z</time>
      </trkpt>
      <trkpt lat="44.04896" lon="3.76722">
        <ele>877.6</ele>
        <time>2015-04-13T14:46:05Z</time>
      </trkpt>
      <trkpt lat="44.04915" lon="3.76829">
        <ele>873</ele>
        <time>2015-04-13T14:46:59Z</time>
      </trkpt>
      <trkpt lat="44.04918" lon="3.7684">
        <ele>873</ele>
        <time>2015-04-13T14:47:03Z</time>
      </trkpt>
      <trkpt lat="44.04903" lon="3.7691">
        <ele>868.5</ele>
        <time>2015-04-13T14:47:57Z</time>
      </trkpt>
      <trkpt lat="44.04859" lon="3.76922">
        <ele>864.5</ele>
        <time>2015-04-13T14:49:00Z</time>
      </trkpt>
      <trkpt lat="44.048" lon="3.76898">
        <ele>861.3</ele>
        <time>2015-04-13T14:49:56Z</time>
      </trkpt>
      <trkpt lat="44.04768" lon="3.76854">
        <ele>858.6</ele>
        <time>2015-04-13T14:50:29Z</time>
      </trkpt>
      <trkpt lat="44.04749" lon="3.76804">
        <ele>856.1</ele>
        <time>2015-04-13T14:50:54Z</time>
      </trkpt>
      <trkpt lat="44.04746" lon="3.76802">
        <ele>856.1</ele>
        <time>2015-04-13T14:50:56Z</time>
      </trkpt>
      <trkpt lat="44.04702" lon="3.76738">
        <ele>852.3</ele>
        <time>2015-04-13T14:51:54Z</time>
      </trkpt>
      <trkpt lat="44.04698" lon="3.76733">
        <ele>852.3</ele>
        <time>2015-04-13T14:52:00Z</time>
      </trkpt>
      <trkpt lat="44.04664" lon="3.76728">
        <ele>850.4</ele>
        <time>2015-04-13T14:52:17Z</time>
      </trkpt>
      <trkpt lat="44.04638" lon="3.76746">
        <ele>848.8</ele>
        <time>2015-04-13T14:52:47Z</time>
      </trkpt>
      <trkpt lat="44.04617" lon="3.76752">
        <ele>847.6</ele>
        <time>2015-04-13T14:53:00Z</time>
      </trkpt>
      <trkpt lat="44.04562" lon="3.76712">
        <ele>845.5</ele>
        <time>2015-04-13T14:53:41Z</time>
      </trkpt>
      <trkpt lat="44.04539" lon="3.76707">
        <ele>843.3</ele>
        <time>2015-04-13T14:54:06Z</time>
      </trkpt>
      <trkpt lat="44.04517" lon="3.76698">
        <ele>840.5</ele>
        <time>2015-04-13T14:54:21Z</time>
      </trkpt>
      <trkpt lat="44.04513" lon="3.76691">
        <ele>840.5</ele>
        <time>2015-04-13T14:54:37Z</time>
      </trkpt>
      <trkpt lat="44.04497" lon="3.76652">
        <ele>837.8</ele>
        <time>2015-04-13T14:54:49Z</time>
      </trkpt>
      <trkpt lat="44.04496" lon="3.76651">
        <ele>837.8</ele>
        <time>2015-04-13T14:54:54Z</time>
      </trkpt>
      <trkpt lat="44.04489" lon="3.76644">
        <ele>835.3</ele>
        <time>2015-04-13T14:55:03Z</time>
      </trkpt>
      <trkpt lat="44.04462" lon="3.76556">
        <ele>830.4</ele>
        <time>2015-04-13T14:55:55Z</time>
      </trkpt>
      <trkpt lat="44.04462" lon="3.76554">
        <ele>830.4</ele>
        <time>2015-04-13T14:55:56Z</time>
      </trkpt>
      <trkpt lat="44.04448" lon="3.76512">
        <ele>828</ele>
        <time>2015-04-13T14:56:21Z</time>
      </trkpt>
      <trkpt lat="44.04442" lon="3.76503">
        <ele>828</ele>
        <time>2015-04-13T14:56:35Z</time>
      </trkpt>
      <trkpt lat="44.04429" lon="3.76489">
        <ele>825.9</ele>
        <time>2015-04-13T14:56:36Z</time>
      </trkpt>
      <trkpt lat="44.04416" lon="3.76491">
        <ele>823.9</ele>
        <time>2015-04-13T14:56:47Z</time>
      </trkpt>
      <trkpt lat="44.04405" lon="3.76501">
        <ele>822.3</ele>
        <time>2015-04-13T14:56:56Z</time>
      </trkpt>
      <trkpt lat="44.04399" lon="3.76509">
        <ele>822.3</ele>
        <time>2015-04-13T14:57:09Z</time>
      </trkpt>
      <trkpt lat="44.04374" lon="3.76522">
        <ele>821</ele>
        <time>2015-04-13T14:57:24Z</time>
      </trkpt>
      <trkpt lat="44.04331" lon="3.76521">
        <ele>818.9</ele>
        <time>2015-04-13T14:58:00Z</time>
      </trkpt>
      <trkpt lat="44.04315" lon="3.76515">
        <ele>817.9</ele>
        <time>2015-04-13T14:58:18Z</time>
      </trkpt>
      <trkpt lat="44.04252" lon="3.76503">
        <ele>816.5</ele>
        <time>2015-04-13T14:59:07Z</time>
      </trkpt>
      <trkpt lat="44.04246" lon="3.76504">
        <ele>815.1</ele>
        <time>2015-04-13T14:59:07Z</time>
      </trkpt>
      <trkpt lat="44.04191" lon="3.76554">
        <ele>813</ele>
        <time>2015-04-13T14:59:56Z</time>
      </trkpt>
      <trkpt lat="44.04188" lon="3.76558">
        <ele>813</ele>
        <time>2015-04-13T15:00:08Z</time>
      </trkpt>
      <trkpt lat="44.04167" lon="3.76618">
        <ele>810.4</ele>
        <time>2015-04-13T15:00:47Z</time>
      </trkpt>
      <trkpt lat="44.04139" lon="3.76609">
        <ele>808</ele>
        <time>2015-04-13T15:00:56Z</time>
      </trkpt>
      <trkpt lat="44.04134" lon="3.76609">
        <ele>808</ele>
        <time>2015-04-13T15:01:04Z</time>
      </trkpt>
      <trkpt lat="44.0413" lon="3.76612">
        <ele>805.9</ele>
        <time>2015-04-13T15:01:12Z</time>
      </trkpt>
      <trkpt lat="44.04121" lon="3.76712">
        <ele>803.2</ele>
        <time>2015-04-13T15:01:59Z</time>
      </trkpt>
      <trkpt lat="44.04128" lon="3.76731">
        <ele>800.8</ele>
        <time>2015-04-13T15:02:19Z</time>
      </trkpt>
      <trkpt lat="44.04145" lon="3.7681">
        <ele>797.5</ele>
        <time>2015-04-13T15:02:56Z</time>
      </trkpt>
      <trkpt lat="44.04142" lon="3.76837">
        <ele>794.1</ele>
        <time>2015-04-13T15:03:14Z</time>
      </trkpt>
      <trkpt lat="44.04134" lon="3.7684">
        <ele>794.1</ele>
        <time>2015-04-13T15:03:21Z</time>
      </trkpt>
      <trkpt lat="44.04132" lon="3.7684">
        <ele>791.1</ele>
        <time>2015-04-13T15:03:21Z</time>
      </trkpt>
      <trkpt lat="44.04111" lon="3.76841">
        <ele>788</ele>
        <time>2015-04-13T15:03:41Z</time>
      </trkpt>
      <trkpt lat="44.04093" lon="3.76852">
        <ele>785.1</ele>
        <time>2015-04-13T15:03:54Z</time>
      </trkpt>
      <trkpt lat="44.04092" lon="3.76854">
        <ele>785.1</ele>
        <time>2015-04-13T15:03:57Z</time>
      </trkpt>
      <trkpt lat="44.04081" lon="3.76856">
        <ele>782.3</ele>
        <time>2015-04-13T15:04:14Z</time>
      </trkpt>
      <trkpt lat="44.0406" lon="3.76868">
        <ele>779.3</ele>
        <time>2015-04-13T15:04:39Z</time>
      </trkpt>
      <trkpt lat="44.04044" lon="3.76899">
        <ele>775.8</ele>
        <time>2015-04-13T15:04:56Z</time>
      </trkpt>
      <trkpt lat="44.04073" lon="3.76984">
        <ele>772</ele>
        <time>2015-04-13T15:05:56Z</time>
      </trkpt>
      <trkpt lat="44.04139" lon="3.77087">
        <ele>765.5</ele>
        <time>2015-04-13T15:07:16Z</time>
      </trkpt>
      <trkpt lat="44.04145" lon="3.77092">
        <ele>762.9</ele>
        <time>2015-04-13T15:07:26Z</time>
      </trkpt>
      <trkpt lat="44.04154" lon="3.77101">
        <ele>760.7</ele>
        <time>2015-04-13T15:07:36Z</time>
      </trkpt>
      <trkpt lat="44.04157" lon="3.77109">
        <ele>760.7</ele>
        <time>2015-04-13T15:07:41Z</time>
      </trkpt>
      <trkpt lat="44.04158" lon="3.77123">
        <ele>758.8</ele>
        <time>2015-04-13T15:07:48Z</time>
      </trkpt>
      <trkpt lat="44.04157" lon="3.77136">
        <ele>757.2</ele>
        <time>2015-04-13T15:07:55Z</time>
      </trkpt>
      <trkpt lat="44.04157" lon="3.77138">
        <ele>757.2</ele>
        <time>2015-04-13T15:07:56Z</time>
      </trkpt>
      <trkpt lat="44.04157" lon="3.77143">
        <ele>757.2</ele>
        <time>2015-04-13T15:08:25Z</time>
      </trkpt>
      <trkpt lat="44.04161" lon="3.7718">
        <ele>756</ele>
        <time>2015-04-13T15:08:56Z</time>
      </trkpt>
      <trkpt lat="44.04227" lon="3.77225">
        <ele>755</ele>
        <time>2015-04-13T15:09:56Z</time>
      </trkpt>
      <trkpt lat="44.04275" lon="3.77235">
        <ele>754.2</ele>
        <time>2015-04-13T15:10:41Z</time>
      </trkpt>
      <trkpt lat="44.0428" lon="3.7724">
        <ele>753.9</ele>
        <time>2015-04-13T15:10:46Z</time>
      </trkpt>
      <trkpt lat="44.04285" lon="3.77246">
        <ele>753.9</ele>
        <time>2015-04-13T15:10:51Z</time>
      </trkpt>
      <trkpt lat="44.04296" lon="3.77257">
        <ele>754</ele>
        <time>2015-04-13T15:11:01Z</time>
      </trkpt>
      <trkpt lat="44.04301" lon="3.77263">
        <ele>754.4</ele>
        <time>2015-04-13T15:11:06Z</time>
      </trkpt>
      <trkpt lat="44.04303" lon="3.77271">
        <ele>754.4</ele>
        <time>2015-04-13T15:11:11Z</time>
      </trkpt>
      <trkpt lat="44.04307" lon="3.77278">
        <ele>755</ele>
        <time>2015-04-13T15:11:16Z</time>
      </trkpt>
      <trkpt lat="44.0431" lon="3.77284">
        <ele>755</ele>
        <time>2015-04-13T15:11:21Z</time>
      </trkpt>
      <trkpt lat="44.04309" lon="3.77285">
        <ele>755</ele>
        <time>2015-04-13T15:11:26Z</time>
      </trkpt>
      <trkpt lat="44.0432" lon="3.77298">
        <ele>755.6</ele>
        <time>2015-04-13T15:11:46Z</time>
      </trkpt>
      <trkpt lat="44.0433" lon="3.77301">
        <ele>756.3</ele>
        <time>2015-04-13T15:11:56Z</time>
      </trkpt>
      <trkpt lat="44.04349" lon="3.77311">
        <ele>757</ele>
        <time>2015-04-13T15:12:19Z</time>
      </trkpt>
      <trkpt lat="44.04403" lon="3.77386">
        <ele>758.7</ele>
        <time>2015-04-13T15:13:21Z</time>
      </trkpt>
      <trkpt lat="44.04419" lon="3.77431">
        <ele>759.7</ele>
        <time>2015-04-13T15:13:54Z</time>
      </trkpt>
      <trkpt lat="44.04412" lon="3.77441">
        <ele>760.6</ele>
        <time>2015-04-13T15:13:56Z</time>
      </trkpt>
      <trkpt lat="44.0439" lon="3.77487">
        <ele>761.8</ele>
        <time>2015-04-13T15:14:44Z</time>
      </trkpt>
      <trkpt lat="44.044" lon="3.77509">
        <ele>763</ele>
        <time>2015-04-13T15:14:56Z</time>
      </trkpt>
      <trkpt lat="44.04406" lon="3.7755">
        <ele>764.2</ele>
        <time>2015-04-13T15:15:21Z</time>
      </trkpt>
      <trkpt lat="44.04403" lon="3.77567">
        <ele>765.4</ele>
        <time>2015-04-13T15:15:38Z</time>
      </trkpt>
      <trkpt lat="44.04401" lon="3.77608">
        <ele>766.9</ele>
        <time>2015-04-13T15:15:55Z</time>
      </trkpt>
      <trkpt lat="44.044" lon="3.7761">
        <ele>766.9</ele>
        <time>2015-04-13T15:15:56Z</time>
      </trkpt>
      <trkpt lat="44.04371" lon="3.77637">
        <ele>768.6</ele>
        <time>2015-04-13T15:16:39Z</time>
      </trkpt>
      <trkpt lat="44.0435" lon="3.77619">
        <ele>770.3</ele>
        <time>2015-04-13T15:16:53Z</time>
      </trkpt>
      <trkpt lat="44.0431" lon="3.77608">
        <ele>772.2</ele>
        <time>2015-04-13T15:17:24Z</time>
      </trkpt>
      <trkpt lat="44.04305" lon="3.77607">
        <ele>772.2</ele>
        <time>2015-04-13T15:17:33Z</time>
      </trkpt>
      <trkpt lat="44.0428" lon="3.77608">
        <ele>774</ele>
        <time>2015-04-13T15:17:53Z</time>
      </trkpt>
      <trkpt lat="44.04267" lon="3.77619">
        <ele>775.8</ele>
        <time>2015-04-13T15:17:57Z</time>
      </trkpt>
      <trkpt lat="44.04262" lon="3.77624">
        <ele>775.8</ele>
        <time>2015-04-13T15:18:09Z</time>
      </trkpt>
      <trkpt lat="44.04253" lon="3.77635">
        <ele>777.7</ele>
        <time>2015-04-13T15:18:18Z</time>
      </trkpt>
      <trkpt lat="44.04254" lon="3.77652">
        <ele>779.4</ele>
        <time>2015-04-13T15:18:18Z</time>
      </trkpt>
      <trkpt lat="44.04229" lon="3.77795">
        <ele>783.6</ele>
        <time>2015-04-13T15:19:56Z</time>
      </trkpt>
      <trkpt lat="44.04231" lon="3.77809">
        <ele>786</ele>
        <time>2015-04-13T15:20:12Z</time>
      </trkpt>
      <trkpt lat="44.04221" lon="3.77851">
        <ele>788.8</ele>
        <time>2015-04-13T15:20:51Z</time>
      </trkpt>
      <trkpt lat="44.04215" lon="3.77853">
        <ele>788.8</ele>
        <time>2015-04-13T15:20:58Z</time>
      </trkpt>
      <trkpt lat="44.04201" lon="3.77857">
        <ele>794.4</ele>
        <time>2015-04-13T15:21:11Z</time>
      </trkpt>
      <trkpt lat="44.04186" lon="3.77865">
        <ele>797.2</ele>
        <time>2015-04-13T15:21:28Z</time>
      </trkpt>
      <trkpt lat="44.04153" lon="3.77874">
        <ele>800.2</ele>
        <time>2015-04-13T15:21:56Z</time>
      </trkpt>
      <trkpt lat="44.04108" lon="3.7784">
        <ele>803.8</ele>
        <time>2015-04-13T15:22:56Z</time>
      </trkpt>
      <trkpt lat="44.04071" lon="3.77802">
        <ele>806.8</ele>
        <time>2015-04-13T15:23:55Z</time>
      </trkpt>
      <trkpt lat="44.0405" lon="3.77792">
        <ele>809.8</ele>
        <time>2015-04-13T15:23:56Z</time>
      </trkpt>
      <trkpt lat="44.03983" lon="3.77771">
        <ele>813.4</ele>
        <time>2015-04-13T15:24:56Z</time>
      </trkpt>
      <trkpt lat="44.03932" lon="3.77819">
        <ele>817.5</ele>
        <time>2015-04-13T15:25:56Z</time>
      </trkpt>
      <trkpt lat="44.03904" lon="3.7787">
        <ele>821.5</ele>
        <time>2015-04-13T15:26:36Z</time>
      </trkpt>
      <trkpt lat="44.03893" lon="3.77884">
        <ele>825.3</ele>
        <time>2015-04-13T15:26:49Z</time>
      </trkpt>
      <trkpt lat="44.03893" lon="3.77885">
        <ele>825.3</ele>
        <time>2015-04-13T15:26:55Z</time>
      </trkpt>
      <trkpt lat="44.03889" lon="3.77893">
        <ele>825.3</ele>
        <time>2015-04-13T15:26:56Z</time>
      </trkpt>
      <trkpt lat="44.03819" lon="3.77918">
        <ele>830.2</ele>
        <time>2015-04-13T15:27:56Z</time>
      </trkpt>
      <trkpt lat="44.03805" lon="3.77935">
        <ele>835</ele>
        <time>2015-04-13T15:28:12Z</time>
      </trkpt>
      <trkpt lat="44.03759" lon="3.7796">
        <ele>839.5</ele>
        <time>2015-04-13T15:28:56Z</time>
      </trkpt>
      <trkpt lat="44.03751" lon="3.77963">
        <ele>839.5</ele>
        <time>2015-04-13T15:29:12Z</time>
      </trkpt>
      <trkpt lat="44.03567" lon="3.77915">
        <ele>859</ele>
        <time>2015-04-13T15:31:55Z</time>
      </trkpt>
      <trkpt lat="44.03558" lon="3.77898">
        <ele>863.5</ele>
        <time>2015-04-13T15:31:56Z</time>
      </trkpt>
      <trkpt lat="44.03489" lon="3.77918">
        <ele>867.7</ele>
        <time>2015-04-13T15:32:58Z</time>
      </trkpt>
      <trkpt lat="44.03463" lon="3.77983">
        <ele>871.7</ele>
        <time>2015-04-13T15:33:55Z</time>
      </trkpt>
      <trkpt lat="44.03463" lon="3.77995">
        <ele>875.2</ele>
        <time>2015-04-13T15:33:56Z</time>
      </trkpt>
      <trkpt lat="44.03359" lon="3.7814">
        <ele>879.5</ele>
        <time>2015-04-13T15:36:21Z</time>
      </trkpt>
      <trkpt lat="44.03369" lon="3.7816">
        <ele>883.3</ele>
        <time>2015-04-13T15:36:42Z</time>
      </trkpt>
      <trkpt lat="44.03401" lon="3.78204">
        <ele>892</ele>
        <time>2015-04-13T15:37:17Z</time>
      </trkpt>
      <trkpt lat="44.03403" lon="3.78222">
        <ele>894.1</ele>
        <time>2015-04-13T15:37:36Z</time>
      </trkpt>
      <trkpt lat="44.03414" lon="3.78248">
        <ele>895.9</ele>
        <time>2015-04-13T15:37:50Z</time>
      </trkpt>
      <trkpt lat="44.03417" lon="3.78251">
        <ele>895.9</ele>
        <time>2015-04-13T15:37:53Z</time>
      </trkpt>
      <trkpt lat="44.03427" lon="3.78262">
        <ele>897.3</ele>
        <time>2015-04-13T15:38:04Z</time>
      </trkpt>
      <trkpt lat="44.03428" lon="3.78266">
        <ele>897.3</ele>
        <time>2015-04-13T15:38:07Z</time>
      </trkpt>
      <trkpt lat="44.03435" lon="3.78295">
        <ele>898.4</ele>
        <time>2015-04-13T15:38:56Z</time>
      </trkpt>
      <trkpt lat="44.03437" lon="3.783">
        <ele>898.4</ele>
        <time>2015-04-13T15:39:05Z</time>
      </trkpt>
      <trkpt lat="44.03432" lon="3.78326">
        <ele>899.3</ele>
        <time>2015-04-13T15:39:23Z</time>
      </trkpt>
      <trkpt lat="44.03437" lon="3.78334">
        <ele>899.3</ele>
        <time>2015-04-13T15:39:40Z</time>
      </trkpt>
      <trkpt lat="44.03441" lon="3.78376">
        <ele>900.5</ele>
        <time>2015-04-13T15:39:56Z</time>
      </trkpt>
      <trkpt lat="44.03444" lon="3.7839">
        <ele>900.8</ele>
        <time>2015-04-13T15:40:11Z</time>
      </trkpt>
      <trkpt lat="44.03448" lon="3.78398">
        <ele>900.8</ele>
        <time>2015-04-13T15:40:11Z</time>
      </trkpt>
      <trkpt lat="44.03442" lon="3.7842">
        <ele>901.1</ele>
        <time>2015-04-13T15:40:26Z</time>
      </trkpt>
      <trkpt lat="44.03441" lon="3.78433">
        <ele>901.1</ele>
        <time>2015-04-13T15:40:37Z</time>
      </trkpt>
      <trkpt lat="44.03443" lon="3.78448">
        <ele>900.9</ele>
        <time>2015-04-13T15:40:57Z</time>
      </trkpt>
      <trkpt lat="44.03444" lon="3.78456">
        <ele>900.9</ele>
        <time>2015-04-13T15:41:09Z</time>
      </trkpt>
      <trkpt lat="44.03441" lon="3.78464">
        <ele>900.6</ele>
        <time>2015-04-13T15:41:11Z</time>
      </trkpt>
      <trkpt lat="44.03443" lon="3.78483">
        <ele>900.4</ele>
        <time>2015-04-13T15:41:23Z</time>
      </trkpt>
      <trkpt lat="44.03443" lon="3.78484">
        <ele>900.4</ele>
        <time>2015-04-13T15:41:26Z</time>
      </trkpt>
      <trkpt lat="44.03433" lon="3.78488">
        <ele>900.2</ele>
        <time>2015-04-13T15:41:57Z</time>
      </trkpt>
      <trkpt lat="44.03383" lon="3.78469">
        <ele>899.9</ele>
        <time>2015-04-13T15:42:46Z</time>
      </trkpt>
      <trkpt lat="44.0337" lon="3.78469">
        <ele>899.4</ele>
        <time>2015-04-13T15:43:00Z</time>
      </trkpt>
      <trkpt lat="44.03278" lon="3.7845">
        <ele>895.6</ele>
        <time>2015-04-13T15:44:27Z</time>
      </trkpt>
      <trkpt lat="44.03271" lon="3.78449">
        <ele>895.6</ele>
        <time>2015-04-13T15:44:28Z</time>
      </trkpt>
      <trkpt lat="44.03231" lon="3.78453">
        <ele>893.3</ele>
        <time>2015-04-13T15:45:08Z</time>
      </trkpt>
      <trkpt lat="44.031" lon="3.78494">
        <ele>890.1</ele>
        <time>2015-04-13T15:47:17Z</time>
      </trkpt>
      <trkpt lat="44.03041" lon="3.7852">
        <ele>887.5</ele>
        <time>2015-04-13T15:48:05Z</time>
      </trkpt>
      <trkpt lat="44.03035" lon="3.78517">
        <ele>887.5</ele>
        <time>2015-04-13T15:48:26Z</time>
      </trkpt>
      <trkpt lat="44.03014" lon="3.78479">
        <ele>884</ele>
        <time>2015-04-13T15:49:13Z</time>
      </trkpt>
      <trkpt lat="44.03006" lon="3.78474">
        <ele>884</ele>
        <time>2015-04-13T15:49:13Z</time>
      </trkpt>
      <trkpt lat="44.02992" lon="3.78453">
        <ele>875.9</ele>
        <time>2015-04-13T15:49:38Z</time>
      </trkpt>
      <trkpt lat="44.02978" lon="3.7844">
        <ele>870.6</ele>
        <time>2015-04-13T15:50:05Z</time>
      </trkpt>
      <trkpt lat="44.02944" lon="3.7849">
        <ele>863.6</ele>
        <time>2015-04-13T15:51:03Z</time>
      </trkpt>
      <trkpt lat="44.02879" lon="3.78559">
        <ele>855.4</ele>
        <time>2015-04-13T15:52:56Z</time>
      </trkpt>
      <trkpt lat="44.02868" lon="3.78553">
        <ele>847.9</ele>
        <time>2015-04-13T15:53:05Z</time>
      </trkpt>
      <trkpt lat="44.02867" lon="3.78552">
        <ele>847.9</ele>
        <time>2015-04-13T15:53:13Z</time>
      </trkpt>
      <trkpt lat="44.02857" lon="3.78547">
        <ele>841</ele>
        <time>2015-04-13T15:53:13Z</time>
      </trkpt>
      <trkpt lat="44.02855" lon="3.78546">
        <ele>841</ele>
        <time>2015-04-13T15:53:22Z</time>
      </trkpt>
      <trkpt lat="44.02797" lon="3.78543">
        <ele>834.3</ele>
        <time>2015-04-13T15:53:57Z</time>
      </trkpt>
      <trkpt lat="44.02788" lon="3.78534">
        <ele>828</ele>
        <time>2015-04-13T15:54:27Z</time>
      </trkpt>
      <trkpt lat="44.028" lon="3.78375">
        <ele>814.7</ele>
        <time>2015-04-13T15:56:06Z</time>
      </trkpt>
      <trkpt lat="44.02769" lon="3.78344">
        <ele>807.1</ele>
        <time>2015-04-13T15:56:36Z</time>
      </trkpt>
      <trkpt lat="44.02764" lon="3.78325">
        <ele>800.2</ele>
        <time>2015-04-13T15:56:56Z</time>
      </trkpt>
      <trkpt lat="44.02755" lon="3.78307">
        <ele>793.7</ele>
        <time>2015-04-13T15:57:02Z</time>
      </trkpt>
      <trkpt lat="44.02751" lon="3.78292">
        <ele>787.8</ele>
        <time>2015-04-13T15:57:13Z</time>
      </trkpt>
      <trkpt lat="44.02732" lon="3.78246">
        <ele>782.1</ele>
        <time>2015-04-13T15:57:54Z</time>
      </trkpt>
      <trkpt lat="44.02729" lon="3.78215">
        <ele>776.8</ele>
        <time>2015-04-13T15:58:11Z</time>
      </trkpt>
      <trkpt lat="44.02722" lon="3.78205">
        <ele>772</ele>
        <time>2015-04-13T15:58:11Z</time>
      </trkpt>
      <trkpt lat="44.02679" lon="3.78187">
        <ele>767.1</ele>
        <time>2015-04-13T15:58:56Z</time>
      </trkpt>
      <trkpt lat="44.02602" lon="3.78193">
        <ele>763.1</ele>
        <time>2015-04-13T15:59:57Z</time>
      </trkpt>
      <trkpt lat="44.02599" lon="3.78199">
        <ele>763.1</ele>
        <time>2015-04-13T16:00:01Z</time>
      </trkpt>
      <trkpt lat="44.02562" lon="3.78248">
        <ele>759.3</ele>
        <time>2015-04-13T16:00:52Z</time>
      </trkpt>
      <trkpt lat="44.02558" lon="3.78258">
        <ele>759.3</ele>
        <time>2015-04-13T16:00:52Z</time>
      </trkpt>
      <trkpt lat="44.0255" lon="3.78263">
        <ele>756.1</ele>
        <time>2015-04-13T16:01:01Z</time>
      </trkpt>
      <trkpt lat="44.02516" lon="3.78297">
        <ele>751.5</ele>
        <time>2015-04-13T16:01:33Z</time>
      </trkpt>
      <trkpt lat="44.02506" lon="3.78297">
        <ele>750</ele>
        <time>2015-04-13T16:01:57Z</time>
      </trkpt>
      <trkpt lat="44.02506" lon="3.7829">
        <ele>750</ele>
        <time>2015-04-13T16:02:03Z</time>
      </trkpt>
      <trkpt lat="44.02492" lon="3.78262">
        <ele>749.1</ele>
        <time>2015-04-13T16:02:29Z</time>
      </trkpt>
      <trkpt lat="44.02483" lon="3.78229">
        <ele>748.6</ele>
        <time>2015-04-13T16:02:47Z</time>
      </trkpt>
      <trkpt lat="44.02474" lon="3.78219">
        <ele>748.4</ele>
        <time>2015-04-13T16:02:57Z</time>
      </trkpt>
      <trkpt lat="44.02471" lon="3.78214">
        <ele>748.4</ele>
        <time>2015-04-13T16:03:01Z</time>
      </trkpt>
      <trkpt lat="44.02458" lon="3.78197">
        <ele>748.4</ele>
        <time>2015-04-13T16:03:22Z</time>
      </trkpt>
      <trkpt lat="44.02432" lon="3.78173">
        <ele>748.4</ele>
        <time>2015-04-13T16:03:50Z</time>
      </trkpt>
      <trkpt lat="44.0242" lon="3.78167">
        <ele>748.6</ele>
        <time>2015-04-13T16:04:00Z</time>
      </trkpt>
      <trkpt lat="44.02418" lon="3.78164">
        <ele>748.6</ele>
        <time>2015-04-13T16:04:01Z</time>
      </trkpt>
      <trkpt lat="44.02394" lon="3.78142">
        <ele>749</ele>
        <time>2015-04-13T16:04:27Z</time>
      </trkpt>
      <trkpt lat="44.02348" lon="3.78141">
        <ele>750.3</ele>
        <time>2015-04-13T16:05:03Z</time>
      </trkpt>
      <trkpt lat="44.02287" lon="3.78164">
        <ele>752.2</ele>
        <time>2015-04-13T16:05:58Z</time>
      </trkpt>
      <trkpt lat="44.02285" lon="3.78166">
        <ele>752.2</ele>
        <time>2015-04-13T16:06:01Z</time>
      </trkpt>
      <trkpt lat="44.02267" lon="3.78164">
        <ele>752.8</ele>
        <time>2015-04-13T16:06:21Z</time>
      </trkpt>
      <trkpt lat="44.02263" lon="3.78133">
        <ele>753</ele>
        <time>2015-04-13T16:06:51Z</time>
      </trkpt>
      <trkpt lat="44.02255" lon="3.78111">
        <ele>752.6</ele>
        <time>2015-04-13T16:07:03Z</time>
      </trkpt>
      <trkpt lat="44.02241" lon="3.7809">
        <ele>751.4</ele>
        <time>2015-04-13T16:07:26Z</time>
      </trkpt>
      <trkpt lat="44.02229" lon="3.78048">
        <ele>749.5</ele>
        <time>2015-04-13T16:07:57Z</time>
      </trkpt>
      <trkpt lat="44.02228" lon="3.77955">
        <ele>745.6</ele>
        <time>2015-04-13T16:09:01Z</time>
      </trkpt>
      <trkpt lat="44.02224" lon="3.77941">
        <ele>741.9</ele>
        <time>2015-04-13T16:09:22Z</time>
      </trkpt>
      <trkpt lat="44.02228" lon="3.77929">
        <ele>738.5</ele>
        <time>2015-04-13T16:09:55Z</time>
      </trkpt>
      <trkpt lat="44.02238" lon="3.7776">
        <ele>734</ele>
        <time>2015-04-13T16:11:03Z</time>
      </trkpt>
      <trkpt lat="44.02236" lon="3.77754">
        <ele>734</ele>
        <time>2015-04-13T16:11:14Z</time>
      </trkpt>
      <trkpt lat="44.02237" lon="3.77693">
        <ele>729.8</ele>
        <time>2015-04-13T16:11:46Z</time>
      </trkpt>
      <trkpt lat="44.02235" lon="3.77666">
        <ele>726</ele>
        <time>2015-04-13T16:11:58Z</time>
      </trkpt>
      <trkpt lat="44.02232" lon="3.77662">
        <ele>726</ele>
        <time>2015-04-13T16:12:01Z</time>
      </trkpt>
      <trkpt lat="44.02111" lon="3.77685">
        <ele>722</ele>
        <time>2015-04-13T16:14:03Z</time>
      </trkpt>
      <trkpt lat="44.02095" lon="3.77682">
        <ele>718.3</ele>
        <time>2015-04-13T16:14:28Z</time>
      </trkpt>
      <trkpt lat="44.02047" lon="3.77698">
        <ele>714.9</ele>
        <time>2015-04-13T16:15:01Z</time>
      </trkpt>
      <trkpt lat="44.01933" lon="3.7782">
        <ele>711</ele>
        <time>2015-04-13T16:16:58Z</time>
      </trkpt>
      <trkpt lat="44.01924" lon="3.77825">
        <ele>707.6</ele>
        <time>2015-04-13T16:17:11Z</time>
      </trkpt>
      <trkpt lat="44.01916" lon="3.77834">
        <ele>704.6</ele>
        <time>2015-04-13T16:17:29Z</time>
      </trkpt>
      <trkpt lat="44.01865" lon="3.77863">
        <ele>701.6</ele>
        <time>2015-04-13T16:17:58Z</time>
      </trkpt>
      <trkpt lat="44.01864" lon="3.77867">
        <ele>701.6</ele>
        <time>2015-04-13T16:18:01Z</time>
      </trkpt>
      <trkpt lat="44.01803" lon="3.77911">
        <ele>698.2</ele>
        <time>2015-04-13T16:18:58Z</time>
      </trkpt>
      <trkpt lat="44.01799" lon="3.77916">
        <ele>698.2</ele>
        <time>2015-04-13T16:19:10Z</time>
      </trkpt>
      <trkpt lat="44.01748" lon="3.77885">
        <ele>694</ele>
        <time>2015-04-13T16:20:03Z</time>
      </trkpt>
      <trkpt lat="44.01677" lon="3.77881">
        <ele>689</ele>
        <time>2015-04-13T16:21:01Z</time>
      </trkpt>
      <trkpt lat="44.0166" lon="3.77887">
        <ele>684.3</ele>
        <time>2015-04-13T16:21:31Z</time>
      </trkpt>
      <trkpt lat="44.01638" lon="3.7789">
        <ele>680.1</ele>
        <time>2015-04-13T16:21:48Z</time>
      </trkpt>
      <trkpt lat="44.01616" lon="3.77877">
        <ele>676</ele>
        <time>2015-04-13T16:21:57Z</time>
      </trkpt>
      <trkpt lat="44.0161" lon="3.77872">
        <ele>676</ele>
        <time>2015-04-13T16:21:57Z</time>
      </trkpt>
      <trkpt lat="44.01607" lon="3.77868">
        <ele>672.3</ele>
        <time>2015-04-13T16:22:06Z</time>
      </trkpt>
      <trkpt lat="44.01563" lon="3.77868">
        <ele>668.6</ele>
        <time>2015-04-13T16:23:08Z</time>
      </trkpt>
      <trkpt lat="44.01544" lon="3.77894">
        <ele>663</ele>
        <time>2015-04-13T16:23:21Z</time>
      </trkpt>
      <trkpt lat="44.01537" lon="3.77969">
        <ele>659.1</ele>
        <time>2015-04-13T16:23:58Z</time>
      </trkpt>
      <trkpt lat="44.01535" lon="3.77972">
        <ele>659.1</ele>
        <time>2015-04-13T16:24:01Z</time>
      </trkpt>
      <trkpt lat="44.0152" lon="3.78008">
        <ele>657.9</ele>
        <time>2015-04-13T16:24:35Z</time>
      </trkpt>
      <trkpt lat="44.01493" lon="3.78048">
        <ele>657.4</ele>
        <time>2015-04-13T16:24:57Z</time>
      </trkpt>
      <trkpt lat="44.01473" lon="3.78043">
        <ele>657.1</ele>
        <time>2015-04-13T16:25:25Z</time>
      </trkpt>
      <trkpt lat="44.01447" lon="3.78041">
        <ele>656.8</ele>
        <time>2015-04-13T16:25:46Z</time>
      </trkpt>
      <trkpt lat="44.01436" lon="3.78024">
        <ele>656.6</ele>
        <time>2015-04-13T16:25:59Z</time>
      </trkpt>
      <trkpt lat="44.01409" lon="3.78014">
        <ele>656.1</ele>
        <time>2015-04-13T16:26:20Z</time>
      </trkpt>
      <trkpt lat="44.01406" lon="3.78015">
        <ele>656.1</ele>
        <time>2015-04-13T16:26:29Z</time>
      </trkpt>
      <trkpt lat="44.01373" lon="3.78005">
        <ele>655</ele>
        <time>2015-04-13T16:26:55Z</time>
      </trkpt>
      <trkpt lat="44.01367" lon="3.77998">
        <ele>655</ele>
        <time>2015-04-13T16:26:57Z</time>
      </trkpt>
      <trkpt lat="44.01355" lon="3.77982">
        <ele>653.9</ele>
        <time>2015-04-13T16:27:20Z</time>
      </trkpt>
      <trkpt lat="44.01341" lon="3.77967">
        <ele>653.5</ele>
        <time>2015-04-13T16:27:23Z</time>
      </trkpt>
      <trkpt lat="44.01337" lon="3.77962">
        <ele>653.5</ele>
        <time>2015-04-13T16:27:36Z</time>
      </trkpt>
      <trkpt lat="44.01311" lon="3.77951">
        <ele>652.6</ele>
        <time>2015-04-13T16:27:50Z</time>
      </trkpt>
      <trkpt lat="44.0129" lon="3.77945">
        <ele>651.6</ele>
        <time>2015-04-13T16:28:14Z</time>
      </trkpt>
      <trkpt lat="44.01271" lon="3.77944">
        <ele>650.3</ele>
        <time>2015-04-13T16:28:20Z</time>
      </trkpt>
      <trkpt lat="44.01269" lon="3.77943">
        <ele>650.3</ele>
        <time>2015-04-13T16:28:21Z</time>
      </trkpt>
      <trkpt lat="44.01237" lon="3.77934">
        <ele>649.1</ele>
        <time>2015-04-13T16:28:55Z</time>
      </trkpt>
      <trkpt lat="44.01231" lon="3.77938">
        <ele>649.1</ele>
        <time>2015-04-13T16:28:57Z</time>
      </trkpt>
      <trkpt lat="44.01229" lon="3.77938">
        <ele>649.1</ele>
        <time>2015-04-13T16:29:57Z</time>
      </trkpt>
      <trkpt lat="44.01226" lon="3.77945">
        <ele>648.4</ele>
        <time>2015-04-13T16:30:16Z</time>
      </trkpt>
      <trkpt lat="44.01225" lon="3.77945">
        <ele>648.4</ele>
        <time>2015-04-13T16:30:27Z</time>
      </trkpt>
      <trkpt lat="44.01236" lon="3.77942">
        <ele>647.9</ele>
        <time>2015-04-13T16:30:57Z</time>
      </trkpt>
      <trkpt lat="44.01228" lon="3.77931">
        <ele>647.8</ele>
        <time>2015-04-13T16:32:35Z</time>
      </trkpt>
      <trkpt lat="44.01227" lon="3.77928">
        <ele>647.8</ele>
        <time>2015-04-13T16:32:41Z</time>
      </trkpt>
    </trkseg>
  </trk>
</gpx>